<?xml version="1.0" encoding="UTF-8" standalone="no" ?>
<gpx xmlns="http://www.topografix.com/GPX/1/1" xmlns:xsi="http://www.w3.org/2001/XMLSchema-instance" xsi:schemaLocation="http://www.topografix.com/GPX/1/1 http://www.topografix.com/GPX/1/1/gpx.xsd" version="1.1" creator="VisuGPX - https://www.visugpx.com">
  <metadata>
    <name>Lac de Vezoles</name>
  </metadata>
  <trk>
    <name><![CDATA[Lac de Vezoles]]></name>
    <extensions>
      <line xmlns="http://www.topografix.com/GPX/gpx_style/0/2">
        <color>0000FF</color>
        <width>4</width>
      </line>
    </extensions>
    <trkseg>
      <trkpt lat="43.55446" lon="2.79024">
        <ele>970.9</ele>
        <time>2020-07-12T08:44:41Z</time>
      </trkpt>
      <trkpt lat="43.55428" lon="2.79022">
        <ele>971.8</ele>
        <time>2020-07-12T08:45:14Z</time>
      </trkpt>
      <trkpt lat="43.55412" lon="2.79009">
        <ele>973</ele>
        <time>2020-07-12T08:45:32Z</time>
      </trkpt>
      <trkpt lat="43.55402" lon="2.78988">
        <ele>974.6</ele>
        <time>2020-07-12T08:45:50Z</time>
      </trkpt>
      <trkpt lat="43.55402" lon="2.78963">
        <ele>976</ele>
        <time>2020-07-12T08:46:04Z</time>
      </trkpt>
      <trkpt lat="43.55412" lon="2.78942">
        <ele>976.2</ele>
        <time>2020-07-12T08:46:12Z</time>
      </trkpt>
      <trkpt lat="43.55426" lon="2.78926">
        <ele>976.7</ele>
        <time>2020-07-12T08:46:21Z</time>
      </trkpt>
      <trkpt lat="43.55438" lon="2.78907">
        <ele>978.2</ele>
        <time>2020-07-12T08:46:38Z</time>
      </trkpt>
      <trkpt lat="43.55428" lon="2.78875">
        <ele>980.2</ele>
        <time>2020-07-12T08:47:45Z</time>
      </trkpt>
      <trkpt lat="43.5543" lon="2.7885">
        <ele>982</ele>
        <time>2020-07-12T08:47:52Z</time>
      </trkpt>
      <trkpt lat="43.55423" lon="2.78827">
        <ele>983.4</ele>
        <time>2020-07-12T08:48:08Z</time>
      </trkpt>
      <trkpt lat="43.55409" lon="2.7881">
        <ele>985</ele>
        <time>2020-07-12T08:48:27Z</time>
      </trkpt>
      <trkpt lat="43.55393" lon="2.78798">
        <ele>986.9</ele>
        <time>2020-07-12T08:48:42Z</time>
      </trkpt>
      <trkpt lat="43.55381" lon="2.7878">
        <ele>988.6</ele>
        <time>2020-07-12T08:49:04Z</time>
      </trkpt>
      <trkpt lat="43.55369" lon="2.7876">
        <ele>990.4</ele>
        <time>2020-07-12T08:49:22Z</time>
      </trkpt>
      <trkpt lat="43.55352" lon="2.78752">
        <ele>991.8</ele>
        <time>2020-07-12T08:49:39Z</time>
      </trkpt>
      <trkpt lat="43.55336" lon="2.78739">
        <ele>992.8</ele>
        <time>2020-07-12T08:50:15Z</time>
      </trkpt>
      <trkpt lat="43.55351" lon="2.78722">
        <ele>992</ele>
        <time>2020-07-12T08:50:42Z</time>
      </trkpt>
      <trkpt lat="43.55363" lon="2.78703">
        <ele>991.4</ele>
        <time>2020-07-12T08:50:54Z</time>
      </trkpt>
      <trkpt lat="43.55374" lon="2.78682">
        <ele>991</ele>
        <time>2020-07-12T08:51:10Z</time>
      </trkpt>
      <trkpt lat="43.55381" lon="2.78659">
        <ele>990.8</ele>
        <time>2020-07-12T08:51:28Z</time>
      </trkpt>
      <trkpt lat="43.55381" lon="2.78634">
        <ele>991</ele>
        <time>2020-07-12T08:51:46Z</time>
      </trkpt>
      <trkpt lat="43.55386" lon="2.7861">
        <ele>991</ele>
        <time>2020-07-12T08:52:33Z</time>
      </trkpt>
      <trkpt lat="43.5538" lon="2.78634">
        <ele>991.1</ele>
        <time>2020-07-12T08:53:24Z</time>
      </trkpt>
      <trkpt lat="43.55369" lon="2.78654">
        <ele>991.5</ele>
        <time>2020-07-12T08:53:38Z</time>
      </trkpt>
      <trkpt lat="43.55351" lon="2.78658">
        <ele>992.3</ele>
        <time>2020-07-12T08:54:19Z</time>
      </trkpt>
      <trkpt lat="43.55344" lon="2.78681">
        <ele>992.5</ele>
        <time>2020-07-12T08:55:23Z</time>
      </trkpt>
      <trkpt lat="43.55343" lon="2.78707">
        <ele>992.5</ele>
        <time>2020-07-12T08:55:42Z</time>
      </trkpt>
      <trkpt lat="43.55342" lon="2.78733">
        <ele>992.5</ele>
        <time>2020-07-12T08:55:51Z</time>
      </trkpt>
      <trkpt lat="43.55343" lon="2.78758">
        <ele>992.1</ele>
        <time>2020-07-12T08:56:02Z</time>
      </trkpt>
      <trkpt lat="43.55335" lon="2.78781">
        <ele>991.8</ele>
        <time>2020-07-12T08:56:14Z</time>
      </trkpt>
      <trkpt lat="43.55323" lon="2.788">
        <ele>992.3</ele>
        <time>2020-07-12T08:56:27Z</time>
      </trkpt>
      <trkpt lat="43.55322" lon="2.78826">
        <ele>991.7</ele>
        <time>2020-07-12T08:56:40Z</time>
      </trkpt>
      <trkpt lat="43.55314" lon="2.78848">
        <ele>991.9</ele>
        <time>2020-07-12T08:56:53Z</time>
      </trkpt>
      <trkpt lat="43.55304" lon="2.7887">
        <ele>992.4</ele>
        <time>2020-07-12T08:57:17Z</time>
      </trkpt>
      <trkpt lat="43.55299" lon="2.78895">
        <ele>992.2</ele>
        <time>2020-07-12T08:57:34Z</time>
      </trkpt>
      <trkpt lat="43.55286" lon="2.78913">
        <ele>993.5</ele>
        <time>2020-07-12T08:57:45Z</time>
      </trkpt>
      <trkpt lat="43.55279" lon="2.78936">
        <ele>992</ele>
        <time>2020-07-12T08:57:57Z</time>
      </trkpt>
      <trkpt lat="43.55271" lon="2.7896">
        <ele>990</ele>
        <time>2020-07-12T08:58:14Z</time>
      </trkpt>
      <trkpt lat="43.55253" lon="2.78955">
        <ele>993.1</ele>
        <time>2020-07-12T08:58:59Z</time>
      </trkpt>
      <trkpt lat="43.55235" lon="2.78958">
        <ele>993.3</ele>
        <time>2020-07-12T08:59:14Z</time>
      </trkpt>
      <trkpt lat="43.55217" lon="2.78962">
        <ele>993.2</ele>
        <time>2020-07-12T08:59:51Z</time>
      </trkpt>
      <trkpt lat="43.55199" lon="2.78957">
        <ele>994</ele>
        <time>2020-07-12T09:00:09Z</time>
      </trkpt>
      <trkpt lat="43.5518" lon="2.78957">
        <ele>994.4</ele>
        <time>2020-07-12T09:00:29Z</time>
      </trkpt>
      <trkpt lat="43.55166" lon="2.78942">
        <ele>995.3</ele>
        <time>2020-07-12T09:00:52Z</time>
      </trkpt>
      <trkpt lat="43.5515" lon="2.78955">
        <ele>989.4</ele>
        <time>2020-07-12T09:01:22Z</time>
      </trkpt>
      <trkpt lat="43.55134" lon="2.78967">
        <ele>983.8</ele>
        <time>2020-07-12T09:02:34Z</time>
      </trkpt>
      <trkpt lat="43.55121" lon="2.78985">
        <ele>979.3</ele>
        <time>2020-07-12T09:02:48Z</time>
      </trkpt>
      <trkpt lat="43.55122" lon="2.79009">
        <ele>978.2</ele>
        <time>2020-07-12T09:03:08Z</time>
      </trkpt>
      <trkpt lat="43.55124" lon="2.79034">
        <ele>976</ele>
        <time>2020-07-12T09:03:32Z</time>
      </trkpt>
      <trkpt lat="43.55119" lon="2.79059">
        <ele>972</ele>
        <time>2020-07-12T09:03:51Z</time>
      </trkpt>
      <trkpt lat="43.55128" lon="2.79081">
        <ele>972</ele>
        <time>2020-07-12T09:04:10Z</time>
      </trkpt>
      <trkpt lat="43.55119" lon="2.7906">
        <ele>971.9</ele>
        <time>2020-07-12T09:05:10Z</time>
      </trkpt>
      <trkpt lat="43.55121" lon="2.79035">
        <ele>975.1</ele>
        <time>2020-07-12T09:05:26Z</time>
      </trkpt>
      <trkpt lat="43.5512" lon="2.7901">
        <ele>977.5</ele>
        <time>2020-07-12T09:05:49Z</time>
      </trkpt>
      <trkpt lat="43.55118" lon="2.78986">
        <ele>978.3</ele>
        <time>2020-07-12T09:06:08Z</time>
      </trkpt>
      <trkpt lat="43.55135" lon="2.78976">
        <ele>983.8</ele>
        <time>2020-07-12T09:06:26Z</time>
      </trkpt>
      <trkpt lat="43.55148" lon="2.78959">
        <ele>988.5</ele>
        <time>2020-07-12T09:06:41Z</time>
      </trkpt>
      <trkpt lat="43.55161" lon="2.78941">
        <ele>993.7</ele>
        <time>2020-07-12T09:07:00Z</time>
      </trkpt>
      <trkpt lat="43.55176" lon="2.78928">
        <ele>996.4</ele>
        <time>2020-07-12T09:07:22Z</time>
      </trkpt>
      <trkpt lat="43.55183" lon="2.78905">
        <ele>997.2</ele>
        <time>2020-07-12T09:07:40Z</time>
      </trkpt>
      <trkpt lat="43.55189" lon="2.78881">
        <ele>997.1</ele>
        <time>2020-07-12T09:08:18Z</time>
      </trkpt>
      <trkpt lat="43.55173" lon="2.78867">
        <ele>996.1</ele>
        <time>2020-07-12T09:08:35Z</time>
      </trkpt>
      <trkpt lat="43.55164" lon="2.78845">
        <ele>994.6</ele>
        <time>2020-07-12T09:08:56Z</time>
      </trkpt>
      <trkpt lat="43.55154" lon="2.78825">
        <ele>992.2</ele>
        <time>2020-07-12T09:09:18Z</time>
      </trkpt>
      <trkpt lat="43.55145" lon="2.78802">
        <ele>991.2</ele>
        <time>2020-07-12T09:09:38Z</time>
      </trkpt>
      <trkpt lat="43.55135" lon="2.78781">
        <ele>990.4</ele>
        <time>2020-07-12T09:09:58Z</time>
      </trkpt>
      <trkpt lat="43.55127" lon="2.78758">
        <ele>990.7</ele>
        <time>2020-07-12T09:10:14Z</time>
      </trkpt>
      <trkpt lat="43.55116" lon="2.78739">
        <ele>990.6</ele>
        <time>2020-07-12T09:10:29Z</time>
      </trkpt>
      <trkpt lat="43.55112" lon="2.78713">
        <ele>991.6</ele>
        <time>2020-07-12T09:10:45Z</time>
      </trkpt>
      <trkpt lat="43.55097" lon="2.78698">
        <ele>991.1</ele>
        <time>2020-07-12T09:10:59Z</time>
      </trkpt>
      <trkpt lat="43.55085" lon="2.78677">
        <ele>991.4</ele>
        <time>2020-07-12T09:11:15Z</time>
      </trkpt>
      <trkpt lat="43.55075" lon="2.78657">
        <ele>993.5</ele>
        <time>2020-07-12T09:11:33Z</time>
      </trkpt>
      <trkpt lat="43.55065" lon="2.78634">
        <ele>996.5</ele>
        <time>2020-07-12T09:11:51Z</time>
      </trkpt>
      <trkpt lat="43.55056" lon="2.78612">
        <ele>999.4</ele>
        <time>2020-07-12T09:12:06Z</time>
      </trkpt>
      <trkpt lat="43.55042" lon="2.78595">
        <ele>1002.3</ele>
        <time>2020-07-12T09:12:24Z</time>
      </trkpt>
      <trkpt lat="43.55034" lon="2.78572">
        <ele>1004.5</ele>
        <time>2020-07-12T09:12:46Z</time>
      </trkpt>
      <trkpt lat="43.55023" lon="2.78553">
        <ele>1006</ele>
        <time>2020-07-12T09:13:05Z</time>
      </trkpt>
      <trkpt lat="43.55018" lon="2.78529">
        <ele>1007.1</ele>
        <time>2020-07-12T09:13:25Z</time>
      </trkpt>
      <trkpt lat="43.55007" lon="2.78509">
        <ele>1008.3</ele>
        <time>2020-07-12T09:13:45Z</time>
      </trkpt>
      <trkpt lat="43.54989" lon="2.785">
        <ele>1008.3</ele>
        <time>2020-07-12T09:14:04Z</time>
      </trkpt>
      <trkpt lat="43.54973" lon="2.78486">
        <ele>1006.8</ele>
        <time>2020-07-12T09:14:19Z</time>
      </trkpt>
      <trkpt lat="43.54955" lon="2.78487">
        <ele>1005.7</ele>
        <time>2020-07-12T09:14:37Z</time>
      </trkpt>
      <trkpt lat="43.54944" lon="2.78507">
        <ele>1005.5</ele>
        <time>2020-07-12T09:14:58Z</time>
      </trkpt>
      <trkpt lat="43.54938" lon="2.78531">
        <ele>1004.5</ele>
        <time>2020-07-12T09:15:13Z</time>
      </trkpt>
      <trkpt lat="43.54933" lon="2.78555">
        <ele>1003.7</ele>
        <time>2020-07-12T09:15:31Z</time>
      </trkpt>
      <trkpt lat="43.54927" lon="2.78579">
        <ele>1002.7</ele>
        <time>2020-07-12T09:15:47Z</time>
      </trkpt>
      <trkpt lat="43.54912" lon="2.78593">
        <ele>1000.4</ele>
        <time>2020-07-12T09:16:02Z</time>
      </trkpt>
      <trkpt lat="43.549" lon="2.78611">
        <ele>996.7</ele>
        <time>2020-07-12T09:16:21Z</time>
      </trkpt>
      <trkpt lat="43.54887" lon="2.78629">
        <ele>992.6</ele>
        <time>2020-07-12T09:16:45Z</time>
      </trkpt>
      <trkpt lat="43.54869" lon="2.7863">
        <ele>988.8</ele>
        <time>2020-07-12T09:17:04Z</time>
      </trkpt>
      <trkpt lat="43.54859" lon="2.78608">
        <ele>988.7</ele>
        <time>2020-07-12T09:17:26Z</time>
      </trkpt>
      <trkpt lat="43.54841" lon="2.78611">
        <ele>984.9</ele>
        <time>2020-07-12T09:18:04Z</time>
      </trkpt>
      <trkpt lat="43.54832" lon="2.78633">
        <ele>980.8</ele>
        <time>2020-07-12T09:18:21Z</time>
      </trkpt>
      <trkpt lat="43.54813" lon="2.78637">
        <ele>974.3</ele>
        <time>2020-07-12T09:18:47Z</time>
      </trkpt>
      <trkpt lat="43.54796" lon="2.78631">
        <ele>969.6</ele>
        <time>2020-07-12T09:19:11Z</time>
      </trkpt>
      <trkpt lat="43.54778" lon="2.78623">
        <ele>965</ele>
        <time>2020-07-12T09:19:32Z</time>
      </trkpt>
      <trkpt lat="43.54768" lon="2.78602">
        <ele>965.1</ele>
        <time>2020-07-12T09:19:56Z</time>
      </trkpt>
      <trkpt lat="43.5475" lon="2.78599">
        <ele>960.4</ele>
        <time>2020-07-12T09:20:49Z</time>
      </trkpt>
      <trkpt lat="43.54739" lon="2.78578">
        <ele>961</ele>
        <time>2020-07-12T09:21:04Z</time>
      </trkpt>
      <trkpt lat="43.54722" lon="2.78587">
        <ele>957.3</ele>
        <time>2020-07-12T09:21:41Z</time>
      </trkpt>
      <trkpt lat="43.54714" lon="2.78564">
        <ele>956.8</ele>
        <time>2020-07-12T09:22:11Z</time>
      </trkpt>
      <trkpt lat="43.54705" lon="2.78543">
        <ele>955.7</ele>
        <time>2020-07-12T09:22:33Z</time>
      </trkpt>
      <trkpt lat="43.54688" lon="2.78554">
        <ele>952.6</ele>
        <time>2020-07-12T09:22:44Z</time>
      </trkpt>
      <trkpt lat="43.54671" lon="2.7856">
        <ele>949.6</ele>
        <time>2020-07-12T09:23:03Z</time>
      </trkpt>
      <trkpt lat="43.54665" lon="2.78584">
        <ele>947.8</ele>
        <time>2020-07-12T09:23:21Z</time>
      </trkpt>
      <trkpt lat="43.54647" lon="2.78589">
        <ele>946.5</ele>
        <time>2020-07-12T09:23:36Z</time>
      </trkpt>
      <trkpt lat="43.54633" lon="2.78606">
        <ele>944.3</ele>
        <time>2020-07-12T09:23:57Z</time>
      </trkpt>
      <trkpt lat="43.54625" lon="2.78629">
        <ele>942.4</ele>
        <time>2020-07-12T09:24:14Z</time>
      </trkpt>
      <trkpt lat="43.54609" lon="2.7864">
        <ele>943</ele>
        <time>2020-07-12T09:24:31Z</time>
      </trkpt>
      <trkpt lat="43.54597" lon="2.78659">
        <ele>943.9</ele>
        <time>2020-07-12T09:24:45Z</time>
      </trkpt>
      <trkpt lat="43.54589" lon="2.78683">
        <ele>939.4</ele>
        <time>2020-07-12T09:25:02Z</time>
      </trkpt>
      <trkpt lat="43.54575" lon="2.787">
        <ele>935.4</ele>
        <time>2020-07-12T09:25:26Z</time>
      </trkpt>
      <trkpt lat="43.54579" lon="2.78722">
        <ele>927.8</ele>
        <time>2020-07-12T09:25:39Z</time>
      </trkpt>
      <trkpt lat="43.54564" lon="2.78701">
        <ele>935.9</ele>
      </trkpt>
      <trkpt lat="43.5453" lon="2.78702">
        <ele>938.1</ele>
        <time>2020-07-12T09:35:15Z</time>
      </trkpt>
      <trkpt lat="43.54513" lon="2.78712">
        <ele>937.7</ele>
        <time>2020-07-12T09:35:30Z</time>
      </trkpt>
      <trkpt lat="43.54497" lon="2.78722">
        <ele>937.4</ele>
        <time>2020-07-12T09:35:48Z</time>
      </trkpt>
      <trkpt lat="43.54479" lon="2.78726">
        <ele>934.9</ele>
        <time>2020-07-12T09:36:08Z</time>
      </trkpt>
      <trkpt lat="43.54461" lon="2.7873">
        <ele>932.6</ele>
        <time>2020-07-12T09:36:27Z</time>
      </trkpt>
      <trkpt lat="43.54448" lon="2.78712">
        <ele>932.7</ele>
        <time>2020-07-12T09:36:49Z</time>
      </trkpt>
      <trkpt lat="43.54445" lon="2.78688">
        <ele>934.1</ele>
        <time>2020-07-12T09:37:09Z</time>
      </trkpt>
      <trkpt lat="43.54448" lon="2.78663">
        <ele>936.3</ele>
        <time>2020-07-12T09:37:25Z</time>
      </trkpt>
      <trkpt lat="43.54445" lon="2.78638">
        <ele>936.1</ele>
        <time>2020-07-12T09:37:41Z</time>
      </trkpt>
      <trkpt lat="43.54438" lon="2.78613">
        <ele>935.5</ele>
        <time>2020-07-12T09:38:02Z</time>
      </trkpt>
      <trkpt lat="43.54423" lon="2.78598">
        <ele>934.2</ele>
        <time>2020-07-12T09:38:23Z</time>
      </trkpt>
      <trkpt lat="43.54413" lon="2.78577">
        <ele>933.9</ele>
        <time>2020-07-12T09:38:42Z</time>
      </trkpt>
      <trkpt lat="43.54412" lon="2.78553">
        <ele>935</ele>
        <time>2020-07-12T09:38:56Z</time>
      </trkpt>
      <trkpt lat="43.54397" lon="2.78537">
        <ele>934.3</ele>
        <time>2020-07-12T09:39:12Z</time>
      </trkpt>
      <trkpt lat="43.5438" lon="2.78529">
        <ele>933.1</ele>
        <time>2020-07-12T09:39:26Z</time>
      </trkpt>
      <trkpt lat="43.54363" lon="2.78518">
        <ele>932.2</ele>
        <time>2020-07-12T09:39:39Z</time>
      </trkpt>
      <trkpt lat="43.5435" lon="2.78501">
        <ele>932.3</ele>
        <time>2020-07-12T09:40:02Z</time>
      </trkpt>
      <trkpt lat="43.54344" lon="2.78478">
        <ele>934</ele>
        <time>2020-07-12T09:40:22Z</time>
      </trkpt>
      <trkpt lat="43.54336" lon="2.78455">
        <ele>936</ele>
        <time>2020-07-12T09:40:38Z</time>
      </trkpt>
      <trkpt lat="43.54322" lon="2.78438">
        <ele>936.9</ele>
        <time>2020-07-12T09:40:54Z</time>
      </trkpt>
      <trkpt lat="43.54304" lon="2.78433">
        <ele>936.4</ele>
        <time>2020-07-12T09:41:14Z</time>
      </trkpt>
      <trkpt lat="43.54322" lon="2.78442">
        <ele>936.4</ele>
        <time>2020-07-12T09:42:33Z</time>
      </trkpt>
      <trkpt lat="43.54332" lon="2.78465">
        <ele>934.6</ele>
        <time>2020-07-12T09:42:46Z</time>
      </trkpt>
      <trkpt lat="43.54342" lon="2.78485">
        <ele>933.2</ele>
        <time>2020-07-12T09:43:01Z</time>
      </trkpt>
      <trkpt lat="43.54342" lon="2.78511">
        <ele>930.8</ele>
        <time>2020-07-12T09:43:17Z</time>
      </trkpt>
      <trkpt lat="43.54351" lon="2.78533">
        <ele>930</ele>
        <time>2020-07-12T09:43:31Z</time>
      </trkpt>
      <trkpt lat="43.54369" lon="2.78541">
        <ele>931.2</ele>
        <time>2020-07-12T09:43:45Z</time>
      </trkpt>
      <trkpt lat="43.54389" lon="2.78537">
        <ele>933.5</ele>
        <time>2020-07-12T09:43:53Z</time>
      </trkpt>
      <trkpt lat="43.54407" lon="2.78534">
        <ele>935.4</ele>
        <time>2020-07-12T09:44:03Z</time>
      </trkpt>
      <trkpt lat="43.54422" lon="2.78548">
        <ele>936.1</ele>
        <time>2020-07-12T09:44:16Z</time>
      </trkpt>
      <trkpt lat="43.5444" lon="2.78544">
        <ele>937.7</ele>
        <time>2020-07-12T09:44:34Z</time>
      </trkpt>
      <trkpt lat="43.54458" lon="2.78539">
        <ele>939.3</ele>
        <time>2020-07-12T09:44:51Z</time>
      </trkpt>
      <trkpt lat="43.54475" lon="2.7853">
        <ele>940.8</ele>
        <time>2020-07-12T09:45:11Z</time>
      </trkpt>
      <trkpt lat="43.54495" lon="2.78532">
        <ele>942.2</ele>
        <time>2020-07-12T09:45:22Z</time>
      </trkpt>
      <trkpt lat="43.54514" lon="2.78528">
        <ele>943.1</ele>
        <time>2020-07-12T09:45:36Z</time>
      </trkpt>
      <trkpt lat="43.54531" lon="2.78519">
        <ele>943.6</ele>
        <time>2020-07-12T09:45:51Z</time>
      </trkpt>
      <trkpt lat="43.54548" lon="2.78511">
        <ele>944.1</ele>
        <time>2020-07-12T09:46:05Z</time>
      </trkpt>
      <trkpt lat="43.54566" lon="2.78503">
        <ele>944.6</ele>
        <time>2020-07-12T09:46:20Z</time>
      </trkpt>
      <trkpt lat="43.54583" lon="2.78492">
        <ele>945</ele>
        <time>2020-07-12T09:46:33Z</time>
      </trkpt>
      <trkpt lat="43.54599" lon="2.78479">
        <ele>946.1</ele>
        <time>2020-07-12T09:46:47Z</time>
      </trkpt>
      <trkpt lat="43.54615" lon="2.78466">
        <ele>947.1</ele>
        <time>2020-07-12T09:47:03Z</time>
      </trkpt>
      <trkpt lat="43.54628" lon="2.78448">
        <ele>947.9</ele>
        <time>2020-07-12T09:47:18Z</time>
      </trkpt>
      <trkpt lat="43.54641" lon="2.7843">
        <ele>948.6</ele>
        <time>2020-07-12T09:47:29Z</time>
      </trkpt>
      <trkpt lat="43.54657" lon="2.7842">
        <ele>949.5</ele>
        <time>2020-07-12T09:47:43Z</time>
      </trkpt>
      <trkpt lat="43.54672" lon="2.78405">
        <ele>950.3</ele>
        <time>2020-07-12T09:47:56Z</time>
      </trkpt>
      <trkpt lat="43.54676" lon="2.78381">
        <ele>949.9</ele>
        <time>2020-07-12T09:48:10Z</time>
      </trkpt>
      <trkpt lat="43.54679" lon="2.78356">
        <ele>949.3</ele>
        <time>2020-07-12T09:48:24Z</time>
      </trkpt>
      <trkpt lat="43.54692" lon="2.78338">
        <ele>950.2</ele>
        <time>2020-07-12T09:48:40Z</time>
      </trkpt>
      <trkpt lat="43.54708" lon="2.78326">
        <ele>951.5</ele>
        <time>2020-07-12T09:48:52Z</time>
      </trkpt>
      <trkpt lat="43.54724" lon="2.78311">
        <ele>952.5</ele>
        <time>2020-07-12T09:49:06Z</time>
      </trkpt>
      <trkpt lat="43.54733" lon="2.7829">
        <ele>952.3</ele>
        <time>2020-07-12T09:49:18Z</time>
      </trkpt>
      <trkpt lat="43.54748" lon="2.78276">
        <ele>953.3</ele>
        <time>2020-07-12T09:49:32Z</time>
      </trkpt>
      <trkpt lat="43.54755" lon="2.78252">
        <ele>953.4</ele>
        <time>2020-07-12T09:49:48Z</time>
      </trkpt>
      <trkpt lat="43.54763" lon="2.78229">
        <ele>954</ele>
        <time>2020-07-12T09:50:03Z</time>
      </trkpt>
      <trkpt lat="43.54771" lon="2.78206">
        <ele>954.7</ele>
        <time>2020-07-12T09:50:15Z</time>
      </trkpt>
      <trkpt lat="43.54779" lon="2.78184">
        <ele>955.3</ele>
        <time>2020-07-12T09:50:30Z</time>
      </trkpt>
      <trkpt lat="43.54787" lon="2.78161">
        <ele>956.1</ele>
        <time>2020-07-12T09:50:45Z</time>
      </trkpt>
      <trkpt lat="43.54795" lon="2.78137">
        <ele>957.2</ele>
        <time>2020-07-12T09:51:00Z</time>
      </trkpt>
      <trkpt lat="43.54795" lon="2.78111">
        <ele>956.2</ele>
        <time>2020-07-12T09:51:13Z</time>
      </trkpt>
      <trkpt lat="43.54799" lon="2.78087">
        <ele>956.1</ele>
        <time>2020-07-12T09:51:28Z</time>
      </trkpt>
      <trkpt lat="43.54803" lon="2.78062">
        <ele>955.8</ele>
        <time>2020-07-12T09:51:42Z</time>
      </trkpt>
      <trkpt lat="43.54805" lon="2.78037">
        <ele>955</ele>
        <time>2020-07-12T09:51:56Z</time>
      </trkpt>
      <trkpt lat="43.54811" lon="2.78013">
        <ele>955.1</ele>
        <time>2020-07-12T09:52:09Z</time>
      </trkpt>
      <trkpt lat="43.54817" lon="2.77989">
        <ele>955.2</ele>
        <time>2020-07-12T09:52:25Z</time>
      </trkpt>
      <trkpt lat="43.54828" lon="2.77969">
        <ele>956.2</ele>
        <time>2020-07-12T09:52:38Z</time>
      </trkpt>
      <trkpt lat="43.54835" lon="2.77945">
        <ele>955.9</ele>
        <time>2020-07-12T09:52:52Z</time>
      </trkpt>
      <trkpt lat="43.54846" lon="2.77924">
        <ele>955.7</ele>
        <time>2020-07-12T09:53:05Z</time>
      </trkpt>
      <trkpt lat="43.54843" lon="2.77899">
        <ele>953.8</ele>
        <time>2020-07-12T09:53:20Z</time>
      </trkpt>
      <trkpt lat="43.54844" lon="2.77874">
        <ele>952.4</ele>
        <time>2020-07-12T09:53:35Z</time>
      </trkpt>
      <trkpt lat="43.5485" lon="2.7785">
        <ele>951.4</ele>
        <time>2020-07-12T09:53:51Z</time>
      </trkpt>
      <trkpt lat="43.54856" lon="2.77826">
        <ele>950.6</ele>
        <time>2020-07-12T09:54:07Z</time>
      </trkpt>
      <trkpt lat="43.5486" lon="2.77801">
        <ele>949.8</ele>
        <time>2020-07-12T09:54:24Z</time>
      </trkpt>
      <trkpt lat="43.54866" lon="2.77777">
        <ele>949.2</ele>
        <time>2020-07-12T09:54:41Z</time>
      </trkpt>
      <trkpt lat="43.54876" lon="2.77757">
        <ele>948.9</ele>
        <time>2020-07-12T09:55:01Z</time>
      </trkpt>
      <trkpt lat="43.5488" lon="2.77735">
        <ele>948</ele>
        <time>2020-07-12T09:55:16Z</time>
      </trkpt>
      <trkpt lat="43.54884" lon="2.7771">
        <ele>947</ele>
        <time>2020-07-12T09:55:27Z</time>
      </trkpt>
      <trkpt lat="43.54889" lon="2.77686">
        <ele>946</ele>
        <time>2020-07-12T09:55:43Z</time>
      </trkpt>
      <trkpt lat="43.54896" lon="2.77662">
        <ele>945.3</ele>
        <time>2020-07-12T09:55:59Z</time>
      </trkpt>
      <trkpt lat="43.54905" lon="2.77641">
        <ele>945.8</ele>
        <time>2020-07-12T09:56:15Z</time>
      </trkpt>
      <trkpt lat="43.54923" lon="2.77649">
        <ele>946.4</ele>
        <time>2020-07-12T09:56:31Z</time>
      </trkpt>
      <trkpt lat="43.5494" lon="2.77666">
        <ele>946.6</ele>
        <time>2020-07-12T09:56:48Z</time>
      </trkpt>
      <trkpt lat="43.54951" lon="2.77644">
        <ele>947.5</ele>
      </trkpt>
      <trkpt lat="43.54943" lon="2.77675">
        <ele>946.9</ele>
        <time>2020-07-12T09:57:04Z</time>
      </trkpt>
      <trkpt lat="43.54944" lon="2.77699">
        <ele>947.7</ele>
      </trkpt>
      <trkpt lat="43.54954" lon="2.77726">
        <ele>948.2</ele>
        <time>2020-07-12T10:03:21Z</time>
      </trkpt>
      <trkpt lat="43.54961" lon="2.77759">
        <ele>949.1</ele>
        <time>2020-07-12T10:03:34Z</time>
      </trkpt>
      <trkpt lat="43.54953" lon="2.7778">
        <ele>951.1</ele>
        <time>2020-07-12T10:03:46Z</time>
      </trkpt>
      <trkpt lat="43.54935" lon="2.77789">
        <ele>952.5</ele>
        <time>2020-07-12T10:04:00Z</time>
      </trkpt>
      <trkpt lat="43.54923" lon="2.77808">
        <ele>954.3</ele>
        <time>2020-07-12T10:04:16Z</time>
      </trkpt>
      <trkpt lat="43.54921" lon="2.77835">
        <ele>956</ele>
        <time>2020-07-12T10:04:30Z</time>
      </trkpt>
      <trkpt lat="43.54928" lon="2.77857">
        <ele>957.5</ele>
        <time>2020-07-12T10:04:41Z</time>
      </trkpt>
      <trkpt lat="43.54934" lon="2.77882">
        <ele>959.5</ele>
        <time>2020-07-12T10:04:59Z</time>
      </trkpt>
      <trkpt lat="43.54937" lon="2.77907">
        <ele>961.5</ele>
        <time>2020-07-12T10:05:15Z</time>
      </trkpt>
      <trkpt lat="43.54955" lon="2.77904">
        <ele>961.3</ele>
        <time>2020-07-12T10:05:39Z</time>
      </trkpt>
      <trkpt lat="43.54973" lon="2.77908">
        <ele>961.8</ele>
        <time>2020-07-12T10:05:58Z</time>
      </trkpt>
      <trkpt lat="43.54985" lon="2.77928">
        <ele>963.8</ele>
        <time>2020-07-12T10:06:11Z</time>
      </trkpt>
      <trkpt lat="43.54996" lon="2.77949">
        <ele>965.7</ele>
        <time>2020-07-12T10:06:23Z</time>
      </trkpt>
      <trkpt lat="43.55012" lon="2.77961">
        <ele>965.9</ele>
        <time>2020-07-12T10:06:34Z</time>
      </trkpt>
      <trkpt lat="43.55025" lon="2.7798">
        <ele>966.7</ele>
        <time>2020-07-12T10:06:49Z</time>
      </trkpt>
      <trkpt lat="43.55033" lon="2.78001">
        <ele>968.1</ele>
        <time>2020-07-12T10:07:03Z</time>
      </trkpt>
      <trkpt lat="43.55049" lon="2.78014">
        <ele>968.2</ele>
        <time>2020-07-12T10:07:16Z</time>
      </trkpt>
      <trkpt lat="43.55058" lon="2.78036">
        <ele>969.4</ele>
        <time>2020-07-12T10:07:38Z</time>
      </trkpt>
      <trkpt lat="43.55063" lon="2.78059">
        <ele>971</ele>
        <time>2020-07-12T10:07:53Z</time>
      </trkpt>
      <trkpt lat="43.55078" lon="2.78075">
        <ele>971.6</ele>
        <time>2020-07-12T10:08:06Z</time>
      </trkpt>
      <trkpt lat="43.55094" lon="2.78087">
        <ele>971.6</ele>
        <time>2020-07-12T10:08:19Z</time>
      </trkpt>
      <trkpt lat="43.55112" lon="2.78097">
        <ele>971.2</ele>
        <time>2020-07-12T10:08:33Z</time>
      </trkpt>
      <trkpt lat="43.55126" lon="2.78112">
        <ele>971.5</ele>
        <time>2020-07-12T10:08:45Z</time>
      </trkpt>
      <trkpt lat="43.55139" lon="2.7813">
        <ele>972.1</ele>
        <time>2020-07-12T10:08:58Z</time>
      </trkpt>
      <trkpt lat="43.55154" lon="2.78145">
        <ele>972.2</ele>
        <time>2020-07-12T10:09:11Z</time>
      </trkpt>
      <trkpt lat="43.5516" lon="2.7817">
        <ele>974</ele>
        <time>2020-07-12T10:09:25Z</time>
      </trkpt>
      <trkpt lat="43.55177" lon="2.7818">
        <ele>974.4</ele>
        <time>2020-07-12T10:09:38Z</time>
      </trkpt>
      <trkpt lat="43.55195" lon="2.78183">
        <ele>974.1</ele>
        <time>2020-07-12T10:09:49Z</time>
      </trkpt>
      <trkpt lat="43.55207" lon="2.78202">
        <ele>975.7</ele>
        <time>2020-07-12T10:10:03Z</time>
      </trkpt>
      <trkpt lat="43.55218" lon="2.78222">
        <ele>977</ele>
        <time>2020-07-12T10:10:18Z</time>
      </trkpt>
      <trkpt lat="43.55235" lon="2.7821">
        <ele>974.9</ele>
        <time>2020-07-12T10:11:34Z</time>
      </trkpt>
      <trkpt lat="43.55248" lon="2.78192">
        <ele>972.9</ele>
        <time>2020-07-12T10:11:43Z</time>
      </trkpt>
      <trkpt lat="43.55259" lon="2.7817">
        <ele>971.7</ele>
        <time>2020-07-12T10:11:55Z</time>
      </trkpt>
      <trkpt lat="43.55273" lon="2.78156">
        <ele>971.5</ele>
        <time>2020-07-12T10:12:07Z</time>
      </trkpt>
      <trkpt lat="43.55291" lon="2.78151">
        <ele>971.9</ele>
        <time>2020-07-12T10:12:18Z</time>
      </trkpt>
      <trkpt lat="43.5531" lon="2.7815">
        <ele>972.6</ele>
        <time>2020-07-12T10:12:31Z</time>
      </trkpt>
      <trkpt lat="43.55328" lon="2.78155">
        <ele>973.8</ele>
        <time>2020-07-12T10:12:45Z</time>
      </trkpt>
      <trkpt lat="43.55346" lon="2.78153">
        <ele>974.2</ele>
        <time>2020-07-12T10:12:58Z</time>
      </trkpt>
      <trkpt lat="43.55363" lon="2.7816">
        <ele>975.2</ele>
        <time>2020-07-12T10:13:14Z</time>
      </trkpt>
      <trkpt lat="43.55364" lon="2.78185">
        <ele>977.6</ele>
        <time>2020-07-12T10:13:53Z</time>
      </trkpt>
      <trkpt lat="43.55359" lon="2.7821">
        <ele>980.2</ele>
        <time>2020-07-12T10:14:12Z</time>
      </trkpt>
      <trkpt lat="43.55355" lon="2.78235">
        <ele>982.9</ele>
        <time>2020-07-12T10:14:34Z</time>
      </trkpt>
      <trkpt lat="43.55344" lon="2.78256">
        <ele>985.1</ele>
        <time>2020-07-12T10:14:49Z</time>
      </trkpt>
      <trkpt lat="43.55335" lon="2.78277">
        <ele>986.9</ele>
        <time>2020-07-12T10:15:03Z</time>
      </trkpt>
      <trkpt lat="43.55324" lon="2.78297">
        <ele>988</ele>
        <time>2020-07-12T10:15:18Z</time>
      </trkpt>
      <trkpt lat="43.55312" lon="2.78316">
        <ele>989.3</ele>
        <time>2020-07-12T10:15:35Z</time>
      </trkpt>
      <trkpt lat="43.55315" lon="2.78341">
        <ele>991.3</ele>
        <time>2020-07-12T10:15:48Z</time>
      </trkpt>
      <trkpt lat="43.55314" lon="2.78366">
        <ele>992.4</ele>
        <time>2020-07-12T10:16:03Z</time>
      </trkpt>
      <trkpt lat="43.55307" lon="2.7839">
        <ele>993.5</ele>
        <time>2020-07-12T10:16:19Z</time>
      </trkpt>
      <trkpt lat="43.55306" lon="2.78415">
        <ele>994.6</ele>
        <time>2020-07-12T10:16:38Z</time>
      </trkpt>
      <trkpt lat="43.55297" lon="2.78437">
        <ele>995.2</ele>
        <time>2020-07-12T10:16:53Z</time>
      </trkpt>
      <trkpt lat="43.55293" lon="2.78461">
        <ele>995.7</ele>
        <time>2020-07-12T10:17:06Z</time>
      </trkpt>
      <trkpt lat="43.55289" lon="2.78486">
        <ele>996.4</ele>
        <time>2020-07-12T10:17:20Z</time>
      </trkpt>
      <trkpt lat="43.55283" lon="2.7851">
        <ele>997.1</ele>
        <time>2020-07-12T10:17:38Z</time>
      </trkpt>
      <trkpt lat="43.55277" lon="2.78534">
        <ele>997.8</ele>
        <time>2020-07-12T10:17:53Z</time>
      </trkpt>
      <trkpt lat="43.55269" lon="2.78557">
        <ele>998.5</ele>
        <time>2020-07-12T10:18:06Z</time>
      </trkpt>
      <trkpt lat="43.55262" lon="2.7858">
        <ele>999.2</ele>
        <time>2020-07-12T10:18:22Z</time>
      </trkpt>
      <trkpt lat="43.55257" lon="2.78604">
        <ele>999.8</ele>
        <time>2020-07-12T10:18:35Z</time>
      </trkpt>
      <trkpt lat="43.55254" lon="2.78629">
        <ele>1000.2</ele>
        <time>2020-07-12T10:18:50Z</time>
      </trkpt>
      <trkpt lat="43.55249" lon="2.78654">
        <ele>1000.8</ele>
        <time>2020-07-12T10:19:09Z</time>
      </trkpt>
      <trkpt lat="43.55241" lon="2.78677">
        <ele>1000.5</ele>
        <time>2020-07-12T10:19:28Z</time>
      </trkpt>
      <trkpt lat="43.55236" lon="2.78702">
        <ele>999.7</ele>
        <time>2020-07-12T10:19:40Z</time>
      </trkpt>
      <trkpt lat="43.55229" lon="2.78725">
        <ele>998.9</ele>
        <time>2020-07-12T10:19:54Z</time>
      </trkpt>
      <trkpt lat="43.55222" lon="2.78748">
        <ele>998</ele>
        <time>2020-07-12T10:20:10Z</time>
      </trkpt>
      <trkpt lat="43.55216" lon="2.78772">
        <ele>998</ele>
        <time>2020-07-12T10:20:25Z</time>
      </trkpt>
      <trkpt lat="43.55223" lon="2.78796">
        <ele>998.6</ele>
        <time>2020-07-12T10:20:49Z</time>
      </trkpt>
      <trkpt lat="43.55219" lon="2.78821">
        <ele>998.6</ele>
        <time>2020-07-12T10:21:03Z</time>
      </trkpt>
      <trkpt lat="43.55216" lon="2.78845">
        <ele>998.5</ele>
        <time>2020-07-12T10:21:12Z</time>
      </trkpt>
      <trkpt lat="43.55207" lon="2.78867">
        <ele>997.9</ele>
        <time>2020-07-12T10:21:25Z</time>
      </trkpt>
      <trkpt lat="43.55201" lon="2.78891">
        <ele>997.7</ele>
        <time>2020-07-12T10:21:40Z</time>
      </trkpt>
      <trkpt lat="43.55193" lon="2.78914">
        <ele>997.6</ele>
        <time>2020-07-12T10:21:55Z</time>
      </trkpt>
      <trkpt lat="43.5519" lon="2.7894">
        <ele>995.6</ele>
        <time>2020-07-12T10:22:26Z</time>
      </trkpt>
      <trkpt lat="43.55192" lon="2.78965">
        <ele>993.5</ele>
        <time>2020-07-12T10:22:54Z</time>
      </trkpt>
      <trkpt lat="43.5521" lon="2.78967">
        <ele>992.8</ele>
        <time>2020-07-12T10:23:12Z</time>
      </trkpt>
      <trkpt lat="43.55227" lon="2.78958">
        <ele>993.5</ele>
        <time>2020-07-12T10:23:35Z</time>
      </trkpt>
      <trkpt lat="43.55244" lon="2.7895">
        <ele>994.3</ele>
        <time>2020-07-12T10:23:50Z</time>
      </trkpt>
      <trkpt lat="43.55263" lon="2.78953">
        <ele>992</ele>
        <time>2020-07-12T10:24:06Z</time>
      </trkpt>
      <trkpt lat="43.55281" lon="2.78954">
        <ele>989.5</ele>
        <time>2020-07-12T10:24:55Z</time>
      </trkpt>
      <trkpt lat="43.553" lon="2.78952">
        <ele>987.1</ele>
        <time>2020-07-12T10:25:12Z</time>
      </trkpt>
      <trkpt lat="43.55318" lon="2.78955">
        <ele>984.4</ele>
        <time>2020-07-12T10:25:28Z</time>
      </trkpt>
      <trkpt lat="43.55337" lon="2.78956">
        <ele>981.9</ele>
        <time>2020-07-12T10:25:52Z</time>
      </trkpt>
      <trkpt lat="43.55354" lon="2.78967">
        <ele>979.5</ele>
        <time>2020-07-12T10:26:09Z</time>
      </trkpt>
      <trkpt lat="43.5537" lon="2.78982">
        <ele>977.1</ele>
        <time>2020-07-12T10:26:29Z</time>
      </trkpt>
      <trkpt lat="43.55386" lon="2.78992">
        <ele>975.4</ele>
        <time>2020-07-12T10:26:47Z</time>
      </trkpt>
      <trkpt lat="43.55399" lon="2.7901">
        <ele>973.7</ele>
        <time>2020-07-12T10:27:05Z</time>
      </trkpt>
      <trkpt lat="43.55417" lon="2.79019">
        <ele>972.3</ele>
        <time>2020-07-12T10:27:19Z</time>
      </trkpt>
      <trkpt lat="43.55434" lon="2.79027">
        <ele>971.3</ele>
        <time>2020-07-12T10:27:33Z</time>
      </trkpt>
      <trkpt lat="43.5545" lon="2.79015">
        <ele>971.3</ele>
        <time>2020-07-12T10:27:55Z</time>
      </trkpt>
      <trkpt lat="43.55454" lon="2.7899">
        <ele>972.8</ele>
        <time>2020-07-12T10:28:05Z</time>
      </trkpt>
      <trkpt lat="43.55463" lon="2.78968">
        <ele>974.3</ele>
        <time>2020-07-12T10:28:19Z</time>
      </trkpt>
      <trkpt lat="43.55481" lon="2.78971">
        <ele>973.9</ele>
        <time>2020-07-12T10:28:31Z</time>
      </trkpt>
      <trkpt lat="43.55499" lon="2.78979">
        <ele>973</ele>
        <time>2020-07-12T10:28:42Z</time>
      </trkpt>
      <trkpt lat="43.55514" lon="2.78995">
        <ele>971.5</ele>
        <time>2020-07-12T10:28:54Z</time>
      </trkpt>
      <trkpt lat="43.55532" lon="2.79">
        <ele>971</ele>
        <time>2020-07-12T10:29:09Z</time>
      </trkpt>
      <trkpt lat="43.55549" lon="2.78991">
        <ele>972</ele>
        <time>2020-07-12T10:29:27Z</time>
      </trkpt>
      <trkpt lat="43.55566" lon="2.78981">
        <ele>973.2</ele>
        <time>2020-07-12T10:29:43Z</time>
      </trkpt>
      <trkpt lat="43.5558" lon="2.78965">
        <ele>975.2</ele>
        <time>2020-07-12T10:29:58Z</time>
      </trkpt>
      <trkpt lat="43.55596" lon="2.78953">
        <ele>977.2</ele>
        <time>2020-07-12T10:30:11Z</time>
      </trkpt>
      <trkpt lat="43.55614" lon="2.78953">
        <ele>978</ele>
        <time>2020-07-12T10:30:28Z</time>
      </trkpt>
      <trkpt lat="43.55632" lon="2.78954">
        <ele>978.7</ele>
        <time>2020-07-12T10:30:45Z</time>
      </trkpt>
      <trkpt lat="43.55649" lon="2.78944">
        <ele>980.3</ele>
        <time>2020-07-12T10:30:58Z</time>
      </trkpt>
      <trkpt lat="43.55664" lon="2.78928">
        <ele>982.1</ele>
        <time>2020-07-12T10:31:18Z</time>
      </trkpt>
      <trkpt lat="43.55671" lon="2.78904">
        <ele>984.4</ele>
        <time>2020-07-12T10:31:35Z</time>
      </trkpt>
      <trkpt lat="43.55684" lon="2.78886">
        <ele>986.7</ele>
        <time>2020-07-12T10:31:53Z</time>
      </trkpt>
      <trkpt lat="43.55698" lon="2.78868">
        <ele>988.7</ele>
        <time>2020-07-12T10:32:09Z</time>
      </trkpt>
      <trkpt lat="43.5571" lon="2.78848">
        <ele>990.5</ele>
        <time>2020-07-12T10:32:30Z</time>
      </trkpt>
      <trkpt lat="43.55729" lon="2.78852">
        <ele>990.6</ele>
        <time>2020-07-12T10:32:44Z</time>
      </trkpt>
      <trkpt lat="43.55746" lon="2.78847">
        <ele>991.3</ele>
        <time>2020-07-12T10:33:07Z</time>
      </trkpt>
      <trkpt lat="43.55697" lon="2.7886">
        <ele>989.2</ele>
      </trkpt>
      <trkpt lat="43.55658" lon="2.78912">
        <ele>983.2</ele>
        <time>2020-07-12T10:36:24Z</time>
      </trkpt>
      <trkpt lat="43.55645" lon="2.78931">
        <ele>981.3</ele>
        <time>2020-07-12T10:36:44Z</time>
      </trkpt>
      <trkpt lat="43.5563" lon="2.78946">
        <ele>979.4</ele>
        <time>2020-07-12T10:37:04Z</time>
      </trkpt>
      <trkpt lat="43.55615" lon="2.78962">
        <ele>977.1</ele>
        <time>2020-07-12T10:37:20Z</time>
      </trkpt>
      <trkpt lat="43.55615" lon="2.78987">
        <ele>974.6</ele>
        <time>2020-07-12T10:37:32Z</time>
      </trkpt>
      <trkpt lat="43.55619" lon="2.79011">
        <ele>973.2</ele>
        <time>2020-07-12T10:37:48Z</time>
      </trkpt>
      <trkpt lat="43.55623" lon="2.79036">
        <ele>972.5</ele>
        <time>2020-07-12T10:38:05Z</time>
      </trkpt>
      <trkpt lat="43.55629" lon="2.7906">
        <ele>972.2</ele>
        <time>2020-07-12T10:38:17Z</time>
      </trkpt>
      <trkpt lat="43.55635" lon="2.79086">
        <ele>971.9</ele>
        <time>2020-07-12T10:38:30Z</time>
      </trkpt>
      <trkpt lat="43.55638" lon="2.7911">
        <ele>971.6</ele>
        <time>2020-07-12T10:38:47Z</time>
      </trkpt>
      <trkpt lat="43.55642" lon="2.79135">
        <ele>971.5</ele>
        <time>2020-07-12T10:39:04Z</time>
      </trkpt>
      <trkpt lat="43.55648" lon="2.79159">
        <ele>971.7</ele>
        <time>2020-07-12T10:39:19Z</time>
      </trkpt>
      <trkpt lat="43.55662" lon="2.79175">
        <ele>972.3</ele>
        <time>2020-07-12T10:39:34Z</time>
      </trkpt>
      <trkpt lat="43.55673" lon="2.79196">
        <ele>970.8</ele>
        <time>2020-07-12T10:39:49Z</time>
      </trkpt>
      <trkpt lat="43.55681" lon="2.79218">
        <ele>968.9</ele>
        <time>2020-07-12T10:40:03Z</time>
      </trkpt>
      <trkpt lat="43.55695" lon="2.79236">
        <ele>968.2</ele>
        <time>2020-07-12T10:40:16Z</time>
      </trkpt>
      <trkpt lat="43.55709" lon="2.79252">
        <ele>968.1</ele>
        <time>2020-07-12T10:40:30Z</time>
      </trkpt>
      <trkpt lat="43.55725" lon="2.79265">
        <ele>969.7</ele>
        <time>2020-07-12T10:40:44Z</time>
      </trkpt>
      <trkpt lat="43.55743" lon="2.79266">
        <ele>971.8</ele>
        <time>2020-07-12T10:40:58Z</time>
      </trkpt>
      <trkpt lat="43.55761" lon="2.79271">
        <ele>974</ele>
        <time>2020-07-12T10:41:13Z</time>
      </trkpt>
      <trkpt lat="43.5575" lon="2.79291">
        <ele>972</ele>
        <time>2020-07-12T10:41:48Z</time>
      </trkpt>
      <trkpt lat="43.55756" lon="2.79267">
        <ele>973.4</ele>
        <time>2020-07-12T10:42:23Z</time>
      </trkpt>
      <trkpt lat="43.55772" lon="2.79255">
        <ele>975.8</ele>
        <time>2020-07-12T10:42:36Z</time>
      </trkpt>
      <trkpt lat="43.55792" lon="2.79253">
        <ele>978.5</ele>
        <time>2020-07-12T10:42:50Z</time>
      </trkpt>
      <trkpt lat="43.55809" lon="2.79261">
        <ele>980.7</ele>
        <time>2020-07-12T10:43:04Z</time>
      </trkpt>
      <trkpt lat="43.55816" lon="2.79284">
        <ele>981.5</ele>
        <time>2020-07-12T10:43:19Z</time>
      </trkpt>
      <trkpt lat="43.55814" lon="2.79309">
        <ele>981.1</ele>
        <time>2020-07-12T10:43:35Z</time>
      </trkpt>
      <trkpt lat="43.55811" lon="2.79333">
        <ele>980.5</ele>
        <time>2020-07-12T10:43:52Z</time>
      </trkpt>
      <trkpt lat="43.55803" lon="2.79358">
        <ele>978.2</ele>
        <time>2020-07-12T10:44:05Z</time>
      </trkpt>
      <trkpt lat="43.55795" lon="2.7938">
        <ele>975.7</ele>
        <time>2020-07-12T10:44:17Z</time>
      </trkpt>
      <trkpt lat="43.55789" lon="2.79404">
        <ele>973.1</ele>
        <time>2020-07-12T10:44:31Z</time>
      </trkpt>
      <trkpt lat="43.55782" lon="2.79427">
        <ele>970.4</ele>
        <time>2020-07-12T10:44:45Z</time>
      </trkpt>
      <trkpt lat="43.5578" lon="2.79453">
        <ele>969.4</ele>
        <time>2020-07-12T10:45:07Z</time>
      </trkpt>
      <trkpt lat="43.55784" lon="2.79478">
        <ele>969.7</ele>
        <time>2020-07-12T10:45:22Z</time>
      </trkpt>
      <trkpt lat="43.55782" lon="2.79503">
        <ele>968.6</ele>
        <time>2020-07-12T10:45:40Z</time>
      </trkpt>
      <trkpt lat="43.55821" lon="2.79518">
        <ele>973.1</ele>
      </trkpt>
      <trkpt lat="43.55856" lon="2.7952">
        <ele>974.4</ele>
      </trkpt>
      <trkpt lat="43.5586" lon="2.79536">
        <ele>971.6</ele>
        <time>2020-07-12T12:36:50Z</time>
      </trkpt>
      <trkpt lat="43.55867" lon="2.79522">
        <ele>974</ele>
        <time>2020-07-12T12:37:49Z</time>
      </trkpt>
      <trkpt lat="43.5589" lon="2.79525">
        <ele>973.5</ele>
        <time>2020-07-12T12:37:51Z</time>
      </trkpt>
      <trkpt lat="43.55907" lon="2.79532">
        <ele>972.2</ele>
        <time>2020-07-12T12:38:02Z</time>
      </trkpt>
      <trkpt lat="43.55925" lon="2.79528">
        <ele>972</ele>
        <time>2020-07-12T12:38:21Z</time>
      </trkpt>
      <trkpt lat="43.55943" lon="2.79524">
        <ele>970.3</ele>
        <time>2020-07-12T12:38:46Z</time>
      </trkpt>
      <trkpt lat="43.5596" lon="2.79512">
        <ele>969.2</ele>
        <time>2020-07-12T12:39:06Z</time>
      </trkpt>
      <trkpt lat="43.55975" lon="2.79499">
        <ele>967.7</ele>
        <time>2020-07-12T12:39:26Z</time>
      </trkpt>
      <trkpt lat="43.5599" lon="2.79484">
        <ele>967.7</ele>
        <time>2020-07-12T12:39:41Z</time>
      </trkpt>
      <trkpt lat="43.56002" lon="2.79465">
        <ele>969.7</ele>
        <time>2020-07-12T12:39:59Z</time>
      </trkpt>
      <trkpt lat="43.56018" lon="2.79453">
        <ele>971.4</ele>
        <time>2020-07-12T12:40:13Z</time>
      </trkpt>
      <trkpt lat="43.56036" lon="2.79446">
        <ele>972</ele>
        <time>2020-07-12T12:40:29Z</time>
      </trkpt>
      <trkpt lat="43.56051" lon="2.79431">
        <ele>973.7</ele>
        <time>2020-07-12T12:40:45Z</time>
      </trkpt>
      <trkpt lat="43.56067" lon="2.79417">
        <ele>974.9</ele>
        <time>2020-07-12T12:41:00Z</time>
      </trkpt>
      <trkpt lat="43.5608" lon="2.79399">
        <ele>975.9</ele>
        <time>2020-07-12T12:41:16Z</time>
      </trkpt>
      <trkpt lat="43.56093" lon="2.7938">
        <ele>976.6</ele>
        <time>2020-07-12T12:41:30Z</time>
      </trkpt>
      <trkpt lat="43.56106" lon="2.79363">
        <ele>976.5</ele>
        <time>2020-07-12T12:41:43Z</time>
      </trkpt>
      <trkpt lat="43.5612" lon="2.79348">
        <ele>975.6</ele>
        <time>2020-07-12T12:42:06Z</time>
      </trkpt>
      <trkpt lat="43.56138" lon="2.79343">
        <ele>973.2</ele>
        <time>2020-07-12T12:42:27Z</time>
      </trkpt>
      <trkpt lat="43.56155" lon="2.79349">
        <ele>970.8</ele>
        <time>2020-07-12T12:42:43Z</time>
      </trkpt>
      <trkpt lat="43.5616" lon="2.79373">
        <ele>970.2</ele>
        <time>2020-07-12T12:43:01Z</time>
      </trkpt>
      <trkpt lat="43.56156" lon="2.79398">
        <ele>970.5</ele>
        <time>2020-07-12T12:43:16Z</time>
      </trkpt>
      <trkpt lat="43.56151" lon="2.79422">
        <ele>970.7</ele>
        <time>2020-07-12T12:43:32Z</time>
      </trkpt>
      <trkpt lat="43.56148" lon="2.79453">
        <ele>970.5</ele>
        <time>2020-07-12T12:43:50Z</time>
      </trkpt>
      <trkpt lat="43.56143" lon="2.79476">
        <ele>969.9</ele>
        <time>2020-07-12T12:44:07Z</time>
      </trkpt>
      <trkpt lat="43.56141" lon="2.79496">
        <ele>969.3</ele>
        <time>2020-07-12T12:44:23Z</time>
      </trkpt>
      <trkpt lat="43.56143" lon="2.79518">
        <ele>969.1</ele>
        <time>2020-07-12T12:44:35Z</time>
      </trkpt>
      <trkpt lat="43.56143" lon="2.79547">
        <ele>968.6</ele>
        <time>2020-07-12T12:44:49Z</time>
      </trkpt>
      <trkpt lat="43.56145" lon="2.79568">
        <ele>968.5</ele>
        <time>2020-07-12T12:45:10Z</time>
      </trkpt>
      <trkpt lat="43.56154" lon="2.79583">
        <ele>968.9</ele>
        <time>2020-07-12T12:45:25Z</time>
      </trkpt>
      <trkpt lat="43.56173" lon="2.79586">
        <ele>969.3</ele>
        <time>2020-07-12T12:45:36Z</time>
      </trkpt>
      <trkpt lat="43.56191" lon="2.79574">
        <ele>968.3</ele>
        <time>2020-07-12T12:45:45Z</time>
      </trkpt>
      <trkpt lat="43.56202" lon="2.79555">
        <ele>968.4</ele>
        <time>2020-07-12T12:45:56Z</time>
      </trkpt>
      <trkpt lat="43.56212" lon="2.79533">
        <ele>969</ele>
        <time>2020-07-12T12:46:12Z</time>
      </trkpt>
      <trkpt lat="43.56224" lon="2.79514">
        <ele>969.7</ele>
        <time>2020-07-12T12:46:25Z</time>
      </trkpt>
      <trkpt lat="43.56241" lon="2.79503">
        <ele>970</ele>
        <time>2020-07-12T12:46:35Z</time>
      </trkpt>
      <trkpt lat="43.56255" lon="2.79486">
        <ele>970.5</ele>
        <time>2020-07-12T12:46:50Z</time>
      </trkpt>
      <trkpt lat="43.56268" lon="2.79469">
        <ele>971.6</ele>
        <time>2020-07-12T12:47:10Z</time>
      </trkpt>
      <trkpt lat="43.56287" lon="2.79472">
        <ele>972.3</ele>
        <time>2020-07-12T12:47:29Z</time>
      </trkpt>
      <trkpt lat="43.56305" lon="2.79476">
        <ele>972.9</ele>
        <time>2020-07-12T12:47:45Z</time>
      </trkpt>
      <trkpt lat="43.56322" lon="2.79487">
        <ele>973.2</ele>
        <time>2020-07-12T12:48:02Z</time>
      </trkpt>
      <trkpt lat="43.56331" lon="2.79509">
        <ele>972.6</ele>
        <time>2020-07-12T12:48:15Z</time>
      </trkpt>
      <trkpt lat="43.56332" lon="2.79534">
        <ele>971.7</ele>
        <time>2020-07-12T12:48:29Z</time>
      </trkpt>
      <trkpt lat="43.56341" lon="2.79556">
        <ele>971.4</ele>
        <time>2020-07-12T12:48:52Z</time>
      </trkpt>
      <trkpt lat="43.56346" lon="2.79581">
        <ele>970.7</ele>
        <time>2020-07-12T12:49:12Z</time>
      </trkpt>
      <trkpt lat="43.56331" lon="2.79596">
        <ele>969.7</ele>
        <time>2020-07-12T12:49:36Z</time>
      </trkpt>
      <trkpt lat="43.56328" lon="2.79622">
        <ele>969.1</ele>
        <time>2020-07-12T12:49:50Z</time>
      </trkpt>
      <trkpt lat="43.56327" lon="2.79647">
        <ele>968.8</ele>
        <time>2020-07-12T12:50:03Z</time>
      </trkpt>
      <trkpt lat="43.56328" lon="2.79671">
        <ele>968.5</ele>
        <time>2020-07-12T12:50:19Z</time>
      </trkpt>
      <trkpt lat="43.56329" lon="2.79698">
        <ele>968</ele>
        <time>2020-07-12T12:50:33Z</time>
      </trkpt>
      <trkpt lat="43.56334" lon="2.79722">
        <ele>967.7</ele>
        <time>2020-07-12T12:50:44Z</time>
      </trkpt>
      <trkpt lat="43.56348" lon="2.79737">
        <ele>968</ele>
        <time>2020-07-12T12:50:58Z</time>
      </trkpt>
      <trkpt lat="43.56363" lon="2.79755">
        <ele>968.2</ele>
        <time>2020-07-12T12:51:14Z</time>
      </trkpt>
      <trkpt lat="43.56366" lon="2.7978">
        <ele>967.4</ele>
        <time>2020-07-12T12:51:30Z</time>
      </trkpt>
      <trkpt lat="43.56382" lon="2.79793">
        <ele>967.9</ele>
        <time>2020-07-12T12:51:36Z</time>
      </trkpt>
      <trkpt lat="43.56398" lon="2.79805">
        <ele>968.5</ele>
        <time>2020-07-12T12:51:51Z</time>
      </trkpt>
      <trkpt lat="43.56413" lon="2.7982">
        <ele>969.1</ele>
        <time>2020-07-12T12:52:06Z</time>
      </trkpt>
      <trkpt lat="43.56421" lon="2.79842">
        <ele>968.9</ele>
        <time>2020-07-12T12:52:23Z</time>
      </trkpt>
      <trkpt lat="43.56427" lon="2.79867">
        <ele>968</ele>
        <time>2020-07-12T12:52:47Z</time>
      </trkpt>
      <trkpt lat="43.56443" lon="2.79879">
        <ele>969.4</ele>
        <time>2020-07-12T12:53:04Z</time>
      </trkpt>
      <trkpt lat="43.56451" lon="2.79902">
        <ele>969.2</ele>
        <time>2020-07-12T12:53:23Z</time>
      </trkpt>
      <trkpt lat="43.56464" lon="2.7992">
        <ele>970.1</ele>
        <time>2020-07-12T12:53:32Z</time>
      </trkpt>
      <trkpt lat="43.5648" lon="2.79932">
        <ele>971.1</ele>
        <time>2020-07-12T12:53:47Z</time>
      </trkpt>
      <trkpt lat="43.56497" lon="2.79943">
        <ele>971.6</ele>
        <time>2020-07-12T12:54:03Z</time>
      </trkpt>
      <trkpt lat="43.56514" lon="2.79953">
        <ele>971.5</ele>
        <time>2020-07-12T12:54:21Z</time>
      </trkpt>
      <trkpt lat="43.5653" lon="2.79966">
        <ele>971.2</ele>
        <time>2020-07-12T12:54:35Z</time>
      </trkpt>
      <trkpt lat="43.56545" lon="2.7998">
        <ele>971.2</ele>
        <time>2020-07-12T12:54:51Z</time>
      </trkpt>
      <trkpt lat="43.56562" lon="2.79973">
        <ele>973.7</ele>
        <time>2020-07-12T12:55:19Z</time>
      </trkpt>
      <trkpt lat="43.56578" lon="2.79987">
        <ele>974.3</ele>
        <time>2020-07-12T12:55:43Z</time>
      </trkpt>
      <trkpt lat="43.56596" lon="2.79986">
        <ele>975.8</ele>
        <time>2020-07-12T12:56:01Z</time>
      </trkpt>
      <trkpt lat="43.56615" lon="2.79992">
        <ele>976.5</ele>
        <time>2020-07-12T12:56:11Z</time>
      </trkpt>
      <trkpt lat="43.56627" lon="2.80012">
        <ele>975.8</ele>
        <time>2020-07-12T12:56:43Z</time>
      </trkpt>
      <trkpt lat="43.56645" lon="2.80017">
        <ele>976.5</ele>
        <time>2020-07-12T12:57:01Z</time>
      </trkpt>
      <trkpt lat="43.56663" lon="2.80017">
        <ele>977.6</ele>
        <time>2020-07-12T12:57:28Z</time>
      </trkpt>
      <trkpt lat="43.5668" lon="2.80027">
        <ele>977.3</ele>
        <time>2020-07-12T12:57:42Z</time>
      </trkpt>
      <trkpt lat="43.56698" lon="2.80034">
        <ele>977.2</ele>
        <time>2020-07-12T12:58:00Z</time>
      </trkpt>
      <trkpt lat="43.56716" lon="2.80036">
        <ele>977.4</ele>
        <time>2020-07-12T12:58:12Z</time>
      </trkpt>
      <trkpt lat="43.56734" lon="2.80036">
        <ele>977.8</ele>
        <time>2020-07-12T12:58:30Z</time>
      </trkpt>
      <trkpt lat="43.56745" lon="2.80058">
        <ele>977.4</ele>
        <time>2020-07-12T12:58:43Z</time>
      </trkpt>
      <trkpt lat="43.56752" lon="2.8008">
        <ele>977.1</ele>
        <time>2020-07-12T12:58:58Z</time>
      </trkpt>
      <trkpt lat="43.56761" lon="2.80105">
        <ele>978.3</ele>
        <time>2020-07-12T12:59:09Z</time>
      </trkpt>
      <trkpt lat="43.56769" lon="2.80127">
        <ele>979.4</ele>
        <time>2020-07-12T12:59:25Z</time>
      </trkpt>
      <trkpt lat="43.56783" lon="2.80144">
        <ele>979.8</ele>
        <time>2020-07-12T12:59:46Z</time>
      </trkpt>
      <trkpt lat="43.56797" lon="2.80161">
        <ele>979.9</ele>
        <time>2020-07-12T13:00:01Z</time>
      </trkpt>
      <trkpt lat="43.56808" lon="2.80182">
        <ele>980</ele>
        <time>2020-07-12T13:00:17Z</time>
      </trkpt>
      <trkpt lat="43.56809" lon="2.80207">
        <ele>980.7</ele>
        <time>2020-07-12T13:00:38Z</time>
      </trkpt>
      <trkpt lat="43.56802" lon="2.8023">
        <ele>982.1</ele>
        <time>2020-07-12T13:00:53Z</time>
      </trkpt>
      <trkpt lat="43.56788" lon="2.80248">
        <ele>984.4</ele>
        <time>2020-07-12T13:01:09Z</time>
      </trkpt>
      <trkpt lat="43.56781" lon="2.80271">
        <ele>985.4</ele>
        <time>2020-07-12T13:01:31Z</time>
      </trkpt>
      <trkpt lat="43.56773" lon="2.80248">
        <ele>986.1</ele>
        <time>2020-07-12T13:02:27Z</time>
      </trkpt>
      <trkpt lat="43.56757" lon="2.80237">
        <ele>987.3</ele>
        <time>2020-07-12T13:02:42Z</time>
      </trkpt>
      <trkpt lat="43.56738" lon="2.80236">
        <ele>988.3</ele>
        <time>2020-07-12T13:02:59Z</time>
      </trkpt>
      <trkpt lat="43.56722" lon="2.80222">
        <ele>987.4</ele>
        <time>2020-07-12T13:03:16Z</time>
      </trkpt>
      <trkpt lat="43.56707" lon="2.80207">
        <ele>986.1</ele>
        <time>2020-07-12T13:03:31Z</time>
      </trkpt>
      <trkpt lat="43.56691" lon="2.80191">
        <ele>984.4</ele>
        <time>2020-07-12T13:03:46Z</time>
      </trkpt>
      <trkpt lat="43.56675" lon="2.80182">
        <ele>983.1</ele>
        <time>2020-07-12T13:04:00Z</time>
      </trkpt>
      <trkpt lat="43.56656" lon="2.8018">
        <ele>982.7</ele>
        <time>2020-07-12T13:04:15Z</time>
      </trkpt>
      <trkpt lat="43.56638" lon="2.80185">
        <ele>983.4</ele>
        <time>2020-07-12T13:04:27Z</time>
      </trkpt>
      <trkpt lat="43.56618" lon="2.8018">
        <ele>982.5</ele>
        <time>2020-07-12T13:05:16Z</time>
      </trkpt>
      <trkpt lat="43.566" lon="2.80186">
        <ele>983.5</ele>
        <time>2020-07-12T13:05:33Z</time>
      </trkpt>
      <trkpt lat="43.56582" lon="2.80184">
        <ele>983.2</ele>
        <time>2020-07-12T13:05:43Z</time>
      </trkpt>
      <trkpt lat="43.56564" lon="2.80185">
        <ele>984</ele>
        <time>2020-07-12T13:05:56Z</time>
      </trkpt>
      <trkpt lat="43.56546" lon="2.80179">
        <ele>983.7</ele>
        <time>2020-07-12T13:06:16Z</time>
      </trkpt>
      <trkpt lat="43.56527" lon="2.80173">
        <ele>983.6</ele>
        <time>2020-07-12T13:06:31Z</time>
      </trkpt>
      <trkpt lat="43.5651" lon="2.80165">
        <ele>983.3</ele>
        <time>2020-07-12T13:06:45Z</time>
      </trkpt>
      <trkpt lat="43.56495" lon="2.80151">
        <ele>981.4</ele>
        <time>2020-07-12T13:07:00Z</time>
      </trkpt>
      <trkpt lat="43.56477" lon="2.80147">
        <ele>980.4</ele>
        <time>2020-07-12T13:07:13Z</time>
      </trkpt>
      <trkpt lat="43.56459" lon="2.80149">
        <ele>980.3</ele>
        <time>2020-07-12T13:07:29Z</time>
      </trkpt>
      <trkpt lat="43.56442" lon="2.80157">
        <ele>981.1</ele>
        <time>2020-07-12T13:07:47Z</time>
      </trkpt>
      <trkpt lat="43.56427" lon="2.80172">
        <ele>983</ele>
        <time>2020-07-12T13:08:02Z</time>
      </trkpt>
      <trkpt lat="43.56409" lon="2.80171">
        <ele>982.6</ele>
        <time>2020-07-12T13:08:15Z</time>
      </trkpt>
      <trkpt lat="43.5639" lon="2.80172">
        <ele>982.6</ele>
        <time>2020-07-12T13:08:30Z</time>
      </trkpt>
      <trkpt lat="43.56371" lon="2.80177">
        <ele>983.2</ele>
        <time>2020-07-12T13:08:47Z</time>
      </trkpt>
      <trkpt lat="43.56353" lon="2.80172">
        <ele>982.6</ele>
        <time>2020-07-12T13:08:59Z</time>
      </trkpt>
      <trkpt lat="43.56335" lon="2.80175">
        <ele>982.8</ele>
        <time>2020-07-12T13:09:13Z</time>
      </trkpt>
      <trkpt lat="43.56318" lon="2.80169">
        <ele>983.5</ele>
        <time>2020-07-12T13:09:32Z</time>
      </trkpt>
      <trkpt lat="43.56301" lon="2.80158">
        <ele>983.8</ele>
        <time>2020-07-12T13:09:54Z</time>
      </trkpt>
      <trkpt lat="43.56295" lon="2.80133">
        <ele>981.6</ele>
        <time>2020-07-12T13:10:07Z</time>
      </trkpt>
      <trkpt lat="43.56289" lon="2.80108">
        <ele>979.4</ele>
        <time>2020-07-12T13:10:23Z</time>
      </trkpt>
      <trkpt lat="43.56287" lon="2.80081">
        <ele>976.8</ele>
        <time>2020-07-12T13:10:37Z</time>
      </trkpt>
      <trkpt lat="43.56291" lon="2.80056">
        <ele>974.4</ele>
        <time>2020-07-12T13:10:48Z</time>
      </trkpt>
      <trkpt lat="43.5629" lon="2.8003">
        <ele>972.5</ele>
        <time>2020-07-12T13:11:04Z</time>
      </trkpt>
      <trkpt lat="43.5629" lon="2.80004">
        <ele>970.5</ele>
        <time>2020-07-12T13:11:19Z</time>
      </trkpt>
      <trkpt lat="43.56278" lon="2.79986">
        <ele>970.5</ele>
        <time>2020-07-12T13:11:37Z</time>
      </trkpt>
      <trkpt lat="43.56268" lon="2.79965">
        <ele>969.7</ele>
        <time>2020-07-12T13:11:51Z</time>
      </trkpt>
      <trkpt lat="43.56263" lon="2.7994">
        <ele>967.7</ele>
        <time>2020-07-12T13:12:07Z</time>
      </trkpt>
      <trkpt lat="43.56251" lon="2.7992">
        <ele>966.3</ele>
        <time>2020-07-12T13:12:25Z</time>
      </trkpt>
      <trkpt lat="43.56237" lon="2.79905">
        <ele>965.8</ele>
        <time>2020-07-12T13:12:41Z</time>
      </trkpt>
      <trkpt lat="43.56221" lon="2.79891">
        <ele>965.6</ele>
        <time>2020-07-12T13:12:51Z</time>
      </trkpt>
      <trkpt lat="43.56205" lon="2.7988">
        <ele>965.3</ele>
        <time>2020-07-12T13:13:05Z</time>
      </trkpt>
      <trkpt lat="43.56186" lon="2.79883">
        <ele>965.7</ele>
        <time>2020-07-12T13:13:19Z</time>
      </trkpt>
      <trkpt lat="43.56168" lon="2.7988">
        <ele>965.8</ele>
        <time>2020-07-12T13:13:34Z</time>
      </trkpt>
      <trkpt lat="43.56152" lon="2.79892">
        <ele>966.1</ele>
        <time>2020-07-12T13:13:46Z</time>
      </trkpt>
      <trkpt lat="43.56136" lon="2.79905">
        <ele>966.4</ele>
        <time>2020-07-12T13:13:58Z</time>
      </trkpt>
      <trkpt lat="43.56121" lon="2.79918">
        <ele>966.5</ele>
        <time>2020-07-12T13:14:13Z</time>
      </trkpt>
      <trkpt lat="43.56106" lon="2.79934">
        <ele>967.3</ele>
        <time>2020-07-12T13:14:25Z</time>
      </trkpt>
      <trkpt lat="43.56089" lon="2.79941">
        <ele>967.2</ele>
        <time>2020-07-12T13:14:38Z</time>
      </trkpt>
      <trkpt lat="43.56072" lon="2.79933">
        <ele>966.1</ele>
        <time>2020-07-12T13:14:52Z</time>
      </trkpt>
      <trkpt lat="43.56053" lon="2.79935">
        <ele>965.9</ele>
        <time>2020-07-12T13:15:07Z</time>
      </trkpt>
      <trkpt lat="43.56039" lon="2.79949">
        <ele>966.9</ele>
        <time>2020-07-12T13:15:22Z</time>
      </trkpt>
      <trkpt lat="43.5602" lon="2.79954">
        <ele>967</ele>
        <time>2020-07-12T13:15:37Z</time>
      </trkpt>
      <trkpt lat="43.56003" lon="2.79947">
        <ele>966</ele>
        <time>2020-07-12T13:15:52Z</time>
      </trkpt>
      <trkpt lat="43.55986" lon="2.79955">
        <ele>966.1</ele>
        <time>2020-07-12T13:16:07Z</time>
      </trkpt>
      <trkpt lat="43.55972" lon="2.79971">
        <ele>966.5</ele>
        <time>2020-07-12T13:16:20Z</time>
      </trkpt>
      <trkpt lat="43.55967" lon="2.79995">
        <ele>967.5</ele>
        <time>2020-07-12T13:16:42Z</time>
      </trkpt>
      <trkpt lat="43.55962" lon="2.8002">
        <ele>969.4</ele>
        <time>2020-07-12T13:17:00Z</time>
      </trkpt>
      <trkpt lat="43.55948" lon="2.80037">
        <ele>969.9</ele>
        <time>2020-07-12T13:17:10Z</time>
      </trkpt>
      <trkpt lat="43.55937" lon="2.80058">
        <ele>971.4</ele>
        <time>2020-07-12T13:17:22Z</time>
      </trkpt>
      <trkpt lat="43.55935" lon="2.80083">
        <ele>974.1</ele>
        <time>2020-07-12T13:17:43Z</time>
      </trkpt>
      <trkpt lat="43.55929" lon="2.80108">
        <ele>976.1</ele>
        <time>2020-07-12T13:17:58Z</time>
      </trkpt>
      <trkpt lat="43.55924" lon="2.80132">
        <ele>978.1</ele>
        <time>2020-07-12T13:18:15Z</time>
      </trkpt>
      <trkpt lat="43.55912" lon="2.80153">
        <ele>979.5</ele>
        <time>2020-07-12T13:18:27Z</time>
      </trkpt>
      <trkpt lat="43.559" lon="2.80172">
        <ele>980.9</ele>
        <time>2020-07-12T13:18:45Z</time>
      </trkpt>
      <trkpt lat="43.55887" lon="2.80189">
        <ele>982</ele>
        <time>2020-07-12T13:19:00Z</time>
      </trkpt>
      <trkpt lat="43.55873" lon="2.80205">
        <ele>982.9</ele>
        <time>2020-07-12T13:19:23Z</time>
      </trkpt>
      <trkpt lat="43.55854" lon="2.80208">
        <ele>982.3</ele>
        <time>2020-07-12T13:19:40Z</time>
      </trkpt>
      <trkpt lat="43.55837" lon="2.80214">
        <ele>982.1</ele>
        <time>2020-07-12T13:19:57Z</time>
      </trkpt>
      <trkpt lat="43.55822" lon="2.80199">
        <ele>981.3</ele>
        <time>2020-07-12T13:20:13Z</time>
      </trkpt>
      <trkpt lat="43.5581" lon="2.80181">
        <ele>980.5</ele>
        <time>2020-07-12T13:20:27Z</time>
      </trkpt>
      <trkpt lat="43.558" lon="2.80158">
        <ele>979.3</ele>
        <time>2020-07-12T13:20:40Z</time>
      </trkpt>
      <trkpt lat="43.55798" lon="2.80133">
        <ele>977.2</ele>
        <time>2020-07-12T13:20:55Z</time>
      </trkpt>
      <trkpt lat="43.5579" lon="2.80109">
        <ele>975.8</ele>
        <time>2020-07-12T13:21:13Z</time>
      </trkpt>
      <trkpt lat="43.5578" lon="2.80088">
        <ele>974.9</ele>
        <time>2020-07-12T13:21:28Z</time>
      </trkpt>
      <trkpt lat="43.55772" lon="2.80066">
        <ele>974.1</ele>
        <time>2020-07-12T13:21:44Z</time>
      </trkpt>
      <trkpt lat="43.55764" lon="2.80043">
        <ele>973.4</ele>
        <time>2020-07-12T13:21:58Z</time>
      </trkpt>
      <trkpt lat="43.55764" lon="2.80018">
        <ele>971.9</ele>
        <time>2020-07-12T13:22:12Z</time>
      </trkpt>
      <trkpt lat="43.55761" lon="2.79992">
        <ele>970.6</ele>
        <time>2020-07-12T13:22:27Z</time>
      </trkpt>
      <trkpt lat="43.55754" lon="2.79969">
        <ele>969.5</ele>
        <time>2020-07-12T13:22:42Z</time>
      </trkpt>
      <trkpt lat="43.55744" lon="2.79947">
        <ele>968.7</ele>
        <time>2020-07-12T13:22:57Z</time>
      </trkpt>
      <trkpt lat="43.55737" lon="2.79924">
        <ele>967.5</ele>
        <time>2020-07-12T13:23:12Z</time>
      </trkpt>
      <trkpt lat="43.55723" lon="2.79907">
        <ele>967.5</ele>
        <time>2020-07-12T13:23:28Z</time>
      </trkpt>
      <trkpt lat="43.55709" lon="2.79891">
        <ele>967.6</ele>
        <time>2020-07-12T13:23:40Z</time>
      </trkpt>
      <trkpt lat="43.55695" lon="2.79874">
        <ele>967.4</ele>
        <time>2020-07-12T13:23:53Z</time>
      </trkpt>
      <trkpt lat="43.55678" lon="2.79865">
        <ele>967.7</ele>
        <time>2020-07-12T13:24:09Z</time>
      </trkpt>
      <trkpt lat="43.55661" lon="2.79854">
        <ele>967.7</ele>
        <time>2020-07-12T13:24:24Z</time>
      </trkpt>
      <trkpt lat="43.55643" lon="2.79852">
        <ele>968.4</ele>
        <time>2020-07-12T13:24:36Z</time>
      </trkpt>
      <trkpt lat="43.55624" lon="2.79856">
        <ele>969.6</ele>
        <time>2020-07-12T13:24:50Z</time>
      </trkpt>
      <trkpt lat="43.55606" lon="2.79857">
        <ele>970.5</ele>
        <time>2020-07-12T13:25:04Z</time>
      </trkpt>
      <trkpt lat="43.55587" lon="2.79855">
        <ele>971.2</ele>
        <time>2020-07-12T13:25:19Z</time>
      </trkpt>
      <trkpt lat="43.55568" lon="2.79855">
        <ele>972.1</ele>
        <time>2020-07-12T13:25:36Z</time>
      </trkpt>
      <trkpt lat="43.55551" lon="2.79866">
        <ele>974.2</ele>
        <time>2020-07-12T13:25:52Z</time>
      </trkpt>
      <trkpt lat="43.55534" lon="2.79873">
        <ele>975.9</ele>
        <time>2020-07-12T13:26:09Z</time>
      </trkpt>
      <trkpt lat="43.55518" lon="2.79885">
        <ele>978.2</ele>
        <time>2020-07-12T13:26:25Z</time>
      </trkpt>
      <trkpt lat="43.55501" lon="2.79894">
        <ele>980.2</ele>
        <time>2020-07-12T13:26:39Z</time>
      </trkpt>
      <trkpt lat="43.55484" lon="2.79903">
        <ele>982.6</ele>
        <time>2020-07-12T13:26:54Z</time>
      </trkpt>
      <trkpt lat="43.55465" lon="2.79906">
        <ele>984.4</ele>
        <time>2020-07-12T13:27:09Z</time>
      </trkpt>
      <trkpt lat="43.55447" lon="2.79906">
        <ele>985.8</ele>
        <time>2020-07-12T13:27:25Z</time>
      </trkpt>
      <trkpt lat="43.55427" lon="2.79903">
        <ele>987</ele>
        <time>2020-07-12T13:27:41Z</time>
      </trkpt>
      <trkpt lat="43.55409" lon="2.799">
        <ele>987.7</ele>
        <time>2020-07-12T13:27:54Z</time>
      </trkpt>
      <trkpt lat="43.55392" lon="2.79892">
        <ele>987.3</ele>
        <time>2020-07-12T13:28:08Z</time>
      </trkpt>
      <trkpt lat="43.55375" lon="2.79884">
        <ele>986.7</ele>
        <time>2020-07-12T13:28:21Z</time>
      </trkpt>
      <trkpt lat="43.55356" lon="2.79883">
        <ele>986.7</ele>
        <time>2020-07-12T13:28:36Z</time>
      </trkpt>
      <trkpt lat="43.55338" lon="2.79885">
        <ele>987.2</ele>
        <time>2020-07-12T13:28:47Z</time>
      </trkpt>
      <trkpt lat="43.5532" lon="2.79887">
        <ele>987.6</ele>
        <time>2020-07-12T13:29:26Z</time>
      </trkpt>
      <trkpt lat="43.55302" lon="2.79892">
        <ele>988.2</ele>
        <time>2020-07-12T13:29:42Z</time>
      </trkpt>
      <trkpt lat="43.55283" lon="2.79894">
        <ele>988.4</ele>
        <time>2020-07-12T13:29:54Z</time>
      </trkpt>
      <trkpt lat="43.55265" lon="2.79889">
        <ele>988.5</ele>
        <time>2020-07-12T13:30:09Z</time>
      </trkpt>
      <trkpt lat="43.55246" lon="2.79878">
        <ele>989.3</ele>
      </trkpt>
      <trkpt lat="43.55232" lon="2.79882">
        <ele>990.5</ele>
      </trkpt>
      <trkpt lat="43.55239" lon="2.79923">
        <ele>989.2</ele>
      </trkpt>
      <trkpt lat="43.55253" lon="2.79964">
        <ele>992.1</ele>
        <time>2020-07-12T13:36:01Z</time>
      </trkpt>
      <trkpt lat="43.55264" lon="2.79985">
        <ele>994.5</ele>
        <time>2020-07-12T13:36:17Z</time>
      </trkpt>
      <trkpt lat="43.55278" lon="2.8">
        <ele>996.7</ele>
        <time>2020-07-12T13:36:33Z</time>
      </trkpt>
      <trkpt lat="43.55296" lon="2.80006">
        <ele>998.5</ele>
        <time>2020-07-12T13:36:47Z</time>
      </trkpt>
      <trkpt lat="43.55313" lon="2.80017">
        <ele>1000.8</ele>
        <time>2020-07-12T13:37:03Z</time>
      </trkpt>
      <trkpt lat="43.55328" lon="2.80033">
        <ele>1003.6</ele>
        <time>2020-07-12T13:37:18Z</time>
      </trkpt>
      <trkpt lat="43.55345" lon="2.80043">
        <ele>1005.4</ele>
        <time>2020-07-12T13:37:34Z</time>
      </trkpt>
      <trkpt lat="43.55362" lon="2.80052">
        <ele>1006.9</ele>
        <time>2020-07-12T13:37:49Z</time>
      </trkpt>
      <trkpt lat="43.55379" lon="2.8006">
        <ele>1008.4</ele>
        <time>2020-07-12T13:38:06Z</time>
      </trkpt>
      <trkpt lat="43.55396" lon="2.80065">
        <ele>1009.6</ele>
        <time>2020-07-12T13:38:19Z</time>
      </trkpt>
      <trkpt lat="43.55415" lon="2.80071">
        <ele>1011</ele>
        <time>2020-07-12T13:38:36Z</time>
      </trkpt>
      <trkpt lat="43.55433" lon="2.80074">
        <ele>1010.9</ele>
        <time>2020-07-12T13:38:50Z</time>
      </trkpt>
      <trkpt lat="43.55451" lon="2.80074">
        <ele>1010.3</ele>
        <time>2020-07-12T13:39:03Z</time>
      </trkpt>
      <trkpt lat="43.5547" lon="2.8008">
        <ele>1010.5</ele>
        <time>2020-07-12T13:39:23Z</time>
      </trkpt>
      <trkpt lat="43.55486" lon="2.80092">
        <ele>1011.9</ele>
        <time>2020-07-12T13:39:39Z</time>
      </trkpt>
      <trkpt lat="43.55505" lon="2.80094">
        <ele>1011.1</ele>
        <time>2020-07-12T13:39:50Z</time>
      </trkpt>
      <trkpt lat="43.55521" lon="2.80104">
        <ele>1010.9</ele>
        <time>2020-07-12T13:40:05Z</time>
      </trkpt>
      <trkpt lat="43.55533" lon="2.80123">
        <ele>1012.1</ele>
        <time>2020-07-12T13:40:17Z</time>
      </trkpt>
      <trkpt lat="43.55541" lon="2.80146">
        <ele>1014</ele>
        <time>2020-07-12T13:40:30Z</time>
      </trkpt>
      <trkpt lat="43.55545" lon="2.80171">
        <ele>1016.5</ele>
        <time>2020-07-12T13:40:45Z</time>
      </trkpt>
      <trkpt lat="43.55552" lon="2.80194">
        <ele>1018.4</ele>
        <time>2020-07-12T13:41:00Z</time>
      </trkpt>
      <trkpt lat="43.55559" lon="2.80217">
        <ele>1020.2</ele>
        <time>2020-07-12T13:41:16Z</time>
      </trkpt>
      <trkpt lat="43.55568" lon="2.80239">
        <ele>1021.4</ele>
        <time>2020-07-12T13:41:32Z</time>
      </trkpt>
      <trkpt lat="43.55578" lon="2.80261">
        <ele>1021.9</ele>
        <time>2020-07-12T13:41:50Z</time>
      </trkpt>
      <trkpt lat="43.55574" lon="2.80286">
        <ele>1025</ele>
        <time>2020-07-12T13:42:03Z</time>
      </trkpt>
      <trkpt lat="43.5556" lon="2.80302">
        <ele>1029.8</ele>
        <time>2020-07-12T13:42:15Z</time>
      </trkpt>
      <trkpt lat="43.55524" lon="2.80247">
        <ele>1030.3</ele>
        <time>2020-07-12T13:44:51Z</time>
      </trkpt>
      <trkpt lat="43.55513" lon="2.80228">
        <ele>1029.6</ele>
        <time>2020-07-12T13:45:06Z</time>
      </trkpt>
      <trkpt lat="43.55494" lon="2.8022">
        <ele>1031.1</ele>
        <time>2020-07-12T13:45:19Z</time>
      </trkpt>
      <trkpt lat="43.55479" lon="2.80205">
        <ele>1029.8</ele>
        <time>2020-07-12T13:45:37Z</time>
      </trkpt>
      <trkpt lat="43.55461" lon="2.8021">
        <ele>1031.6</ele>
        <time>2020-07-12T13:45:52Z</time>
      </trkpt>
      <trkpt lat="43.55447" lon="2.80227">
        <ele>1035.2</ele>
        <time>2020-07-12T13:46:06Z</time>
      </trkpt>
      <trkpt lat="43.55437" lon="2.80248">
        <ele>1039.2</ele>
        <time>2020-07-12T13:46:21Z</time>
      </trkpt>
      <trkpt lat="43.55422" lon="2.80262">
        <ele>1042.6</ele>
        <time>2020-07-12T13:46:36Z</time>
      </trkpt>
      <trkpt lat="43.55406" lon="2.80273">
        <ele>1044.2</ele>
        <time>2020-07-12T13:46:49Z</time>
      </trkpt>
      <trkpt lat="43.55389" lon="2.80284">
        <ele>1044.8</ele>
        <time>2020-07-12T13:47:05Z</time>
      </trkpt>
      <trkpt lat="43.5537" lon="2.80291">
        <ele>1044.5</ele>
        <time>2020-07-12T13:47:21Z</time>
      </trkpt>
      <trkpt lat="43.55354" lon="2.803">
        <ele>1044.7</ele>
        <time>2020-07-12T13:47:36Z</time>
      </trkpt>
      <trkpt lat="43.55338" lon="2.80315">
        <ele>1045.7</ele>
        <time>2020-07-12T13:47:51Z</time>
      </trkpt>
      <trkpt lat="43.5532" lon="2.8032">
        <ele>1045.8</ele>
        <time>2020-07-12T13:48:05Z</time>
      </trkpt>
      <trkpt lat="43.55302" lon="2.80331">
        <ele>1047.2</ele>
        <time>2020-07-12T13:48:20Z</time>
      </trkpt>
      <trkpt lat="43.55286" lon="2.80342">
        <ele>1047.6</ele>
        <time>2020-07-12T13:48:37Z</time>
      </trkpt>
      <trkpt lat="43.5527" lon="2.80355">
        <ele>1047</ele>
        <time>2020-07-12T13:48:51Z</time>
      </trkpt>
      <trkpt lat="43.55253" lon="2.80364">
        <ele>1045.7</ele>
        <time>2020-07-12T13:49:03Z</time>
      </trkpt>
      <trkpt lat="43.55237" lon="2.8035">
        <ele>1043.7</ele>
        <time>2020-07-12T13:49:32Z</time>
      </trkpt>
      <trkpt lat="43.55224" lon="2.80332">
        <ele>1041.8</ele>
        <time>2020-07-12T13:50:03Z</time>
      </trkpt>
      <trkpt lat="43.55221" lon="2.80307">
        <ele>1036.8</ele>
        <time>2020-07-12T13:52:06Z</time>
      </trkpt>
      <trkpt lat="43.55232" lon="2.80336">
        <ele>1043.3</ele>
      </trkpt>
      <trkpt lat="43.5525" lon="2.80357">
        <ele>1045.9</ele>
      </trkpt>
      <trkpt lat="43.55277" lon="2.80353">
        <ele>1047.4</ele>
        <time>2020-07-12T14:51:32Z</time>
      </trkpt>
      <trkpt lat="43.55292" lon="2.8034">
        <ele>1047.7</ele>
        <time>2020-07-12T14:51:46Z</time>
      </trkpt>
      <trkpt lat="43.55309" lon="2.80331">
        <ele>1047.3</ele>
        <time>2020-07-12T14:52:01Z</time>
      </trkpt>
      <trkpt lat="43.55325" lon="2.80317">
        <ele>1045.5</ele>
        <time>2020-07-12T14:52:16Z</time>
      </trkpt>
      <trkpt lat="43.55342" lon="2.80308">
        <ele>1045</ele>
        <time>2020-07-12T14:52:27Z</time>
      </trkpt>
      <trkpt lat="43.5536" lon="2.80302">
        <ele>1045.5</ele>
        <time>2020-07-12T14:52:39Z</time>
      </trkpt>
      <trkpt lat="43.55375" lon="2.80289">
        <ele>1044.6</ele>
        <time>2020-07-12T14:52:53Z</time>
      </trkpt>
      <trkpt lat="43.55378" lon="2.80264">
        <ele>1040.9</ele>
        <time>2020-07-12T14:53:05Z</time>
      </trkpt>
      <trkpt lat="43.55391" lon="2.80246">
        <ele>1038.8</ele>
        <time>2020-07-12T14:53:19Z</time>
      </trkpt>
      <trkpt lat="43.55408" lon="2.80238">
        <ele>1038.5</ele>
        <time>2020-07-12T14:53:34Z</time>
      </trkpt>
      <trkpt lat="43.55424" lon="2.80223">
        <ele>1036</ele>
        <time>2020-07-12T14:53:50Z</time>
      </trkpt>
      <trkpt lat="43.55438" lon="2.80208">
        <ele>1032.7</ele>
        <time>2020-07-12T14:54:01Z</time>
      </trkpt>
      <trkpt lat="43.55449" lon="2.80187">
        <ele>1028.7</ele>
        <time>2020-07-12T14:54:14Z</time>
      </trkpt>
      <trkpt lat="43.55467" lon="2.80195">
        <ele>1028.9</ele>
        <time>2020-07-12T14:54:28Z</time>
      </trkpt>
      <trkpt lat="43.55485" lon="2.80203">
        <ele>1029.1</ele>
        <time>2020-07-12T14:54:37Z</time>
      </trkpt>
      <trkpt lat="43.55502" lon="2.80212">
        <ele>1029.2</ele>
        <time>2020-07-12T14:54:44Z</time>
      </trkpt>
      <trkpt lat="43.55515" lon="2.80229">
        <ele>1029.4</ele>
        <time>2020-07-12T14:54:54Z</time>
      </trkpt>
      <trkpt lat="43.55529" lon="2.80246">
        <ele>1029.2</ele>
        <time>2020-07-12T14:55:06Z</time>
      </trkpt>
      <trkpt lat="43.55543" lon="2.80263">
        <ele>1028.9</ele>
        <time>2020-07-12T14:55:17Z</time>
      </trkpt>
      <trkpt lat="43.55554" lon="2.80283">
        <ele>1029</ele>
        <time>2020-07-12T14:55:29Z</time>
      </trkpt>
      <trkpt lat="43.55568" lon="2.803">
        <ele>1027.7</ele>
        <time>2020-07-12T14:55:43Z</time>
      </trkpt>
      <trkpt lat="43.55581" lon="2.80282">
        <ele>1023.2</ele>
        <time>2020-07-12T14:55:56Z</time>
      </trkpt>
      <trkpt lat="43.55579" lon="2.80257">
        <ele>1021.4</ele>
        <time>2020-07-12T14:56:10Z</time>
      </trkpt>
      <trkpt lat="43.55573" lon="2.80233">
        <ele>1019.8</ele>
        <time>2020-07-12T14:56:24Z</time>
      </trkpt>
      <trkpt lat="43.5557" lon="2.80209">
        <ele>1017.3</ele>
        <time>2020-07-12T14:56:36Z</time>
      </trkpt>
      <trkpt lat="43.5556" lon="2.80188">
        <ele>1016.3</ele>
        <time>2020-07-12T14:56:51Z</time>
      </trkpt>
      <trkpt lat="43.55544" lon="2.80177">
        <ele>1017.5</ele>
        <time>2020-07-12T14:57:01Z</time>
      </trkpt>
      <trkpt lat="43.55531" lon="2.80158">
        <ele>1017</ele>
        <time>2020-07-12T14:57:12Z</time>
      </trkpt>
      <trkpt lat="43.55523" lon="2.80135">
        <ele>1015</ele>
        <time>2020-07-12T14:57:27Z</time>
      </trkpt>
      <trkpt lat="43.55517" lon="2.80111">
        <ele>1012.3</ele>
        <time>2020-07-12T14:57:40Z</time>
      </trkpt>
      <trkpt lat="43.55499" lon="2.80108">
        <ele>1013.9</ele>
        <time>2020-07-12T14:58:01Z</time>
      </trkpt>
      <trkpt lat="43.55482" lon="2.80102">
        <ele>1013.6</ele>
        <time>2020-07-12T14:58:14Z</time>
      </trkpt>
      <trkpt lat="43.55466" lon="2.80089">
        <ele>1012.1</ele>
        <time>2020-07-12T14:58:25Z</time>
      </trkpt>
      <trkpt lat="43.55448" lon="2.80084">
        <ele>1012</ele>
        <time>2020-07-12T14:58:40Z</time>
      </trkpt>
      <trkpt lat="43.5543" lon="2.80088">
        <ele>1013.3</ele>
        <time>2020-07-12T14:58:57Z</time>
      </trkpt>
      <trkpt lat="43.5541" lon="2.8009">
        <ele>1013.9</ele>
        <time>2020-07-12T14:59:12Z</time>
      </trkpt>
      <trkpt lat="43.55393" lon="2.80092">
        <ele>1013.6</ele>
        <time>2020-07-12T14:59:24Z</time>
      </trkpt>
      <trkpt lat="43.55376" lon="2.80081">
        <ele>1011.2</ele>
        <time>2020-07-12T14:59:34Z</time>
      </trkpt>
      <trkpt lat="43.55364" lon="2.80061">
        <ele>1008.1</ele>
        <time>2020-07-12T14:59:44Z</time>
      </trkpt>
      <trkpt lat="43.55356" lon="2.80038">
        <ele>1004.9</ele>
        <time>2020-07-12T14:59:54Z</time>
      </trkpt>
      <trkpt lat="43.55338" lon="2.80029">
        <ele>1003.5</ele>
        <time>2020-07-12T15:00:09Z</time>
      </trkpt>
      <trkpt lat="43.55324" lon="2.80013">
        <ele>1001</ele>
        <time>2020-07-12T15:00:23Z</time>
      </trkpt>
      <trkpt lat="43.55306" lon="2.80006">
        <ele>999.1</ele>
        <time>2020-07-12T15:00:37Z</time>
      </trkpt>
      <trkpt lat="43.5529" lon="2.79995">
        <ele>996.9</ele>
        <time>2020-07-12T15:00:50Z</time>
      </trkpt>
      <trkpt lat="43.55272" lon="2.79988">
        <ele>995.2</ele>
        <time>2020-07-12T15:01:02Z</time>
      </trkpt>
      <trkpt lat="43.55259" lon="2.79972">
        <ele>993.1</ele>
        <time>2020-07-12T15:01:13Z</time>
      </trkpt>
      <trkpt lat="43.55245" lon="2.79955">
        <ele>991.3</ele>
        <time>2020-07-12T15:01:28Z</time>
      </trkpt>
      <trkpt lat="43.55233" lon="2.79935">
        <ele>990.4</ele>
        <time>2020-07-12T15:01:46Z</time>
      </trkpt>
      <trkpt lat="43.55227" lon="2.79911">
        <ele>989.9</ele>
        <time>2020-07-12T15:01:59Z</time>
      </trkpt>
      <trkpt lat="43.55229" lon="2.79886">
        <ele>990.6</ele>
        <time>2020-07-12T15:02:06Z</time>
      </trkpt>
      <trkpt lat="43.55233" lon="2.79861">
        <ele>991.1</ele>
        <time>2020-07-12T15:02:13Z</time>
      </trkpt>
      <trkpt lat="43.55245" lon="2.79841">
        <ele>990.4</ele>
        <time>2020-07-12T15:02:28Z</time>
      </trkpt>
      <trkpt lat="43.55257" lon="2.79822">
        <ele>989.2</ele>
        <time>2020-07-12T15:02:43Z</time>
      </trkpt>
      <trkpt lat="43.55259" lon="2.79796">
        <ele>988.9</ele>
        <time>2020-07-12T15:02:59Z</time>
      </trkpt>
      <trkpt lat="43.55267" lon="2.79773">
        <ele>987.9</ele>
        <time>2020-07-12T15:03:12Z</time>
      </trkpt>
      <trkpt lat="43.55269" lon="2.79748">
        <ele>987.5</ele>
        <time>2020-07-12T15:03:26Z</time>
      </trkpt>
      <trkpt lat="43.5528" lon="2.79727">
        <ele>985.9</ele>
        <time>2020-07-12T15:03:42Z</time>
      </trkpt>
      <trkpt lat="43.55286" lon="2.79702">
        <ele>985</ele>
        <time>2020-07-12T15:04:02Z</time>
      </trkpt>
      <trkpt lat="43.55293" lon="2.79679">
        <ele>983.9</ele>
        <time>2020-07-12T15:04:16Z</time>
      </trkpt>
      <trkpt lat="43.55299" lon="2.79655">
        <ele>981.7</ele>
        <time>2020-07-12T15:04:25Z</time>
      </trkpt>
      <trkpt lat="43.55304" lon="2.79631">
        <ele>978.6</ele>
        <time>2020-07-12T15:04:36Z</time>
      </trkpt>
      <trkpt lat="43.55313" lon="2.79609">
        <ele>975.6</ele>
        <time>2020-07-12T15:04:49Z</time>
      </trkpt>
      <trkpt lat="43.55323" lon="2.79589">
        <ele>973.1</ele>
        <time>2020-07-12T15:05:05Z</time>
      </trkpt>
      <trkpt lat="43.55333" lon="2.79568">
        <ele>971.1</ele>
        <time>2020-07-12T15:05:22Z</time>
      </trkpt>
      <trkpt lat="43.55336" lon="2.79543">
        <ele>969.4</ele>
        <time>2020-07-12T15:05:38Z</time>
      </trkpt>
      <trkpt lat="43.55328" lon="2.7952">
        <ele>968.3</ele>
        <time>2020-07-12T15:05:52Z</time>
      </trkpt>
      <trkpt lat="43.55316" lon="2.79501">
        <ele>967.3</ele>
        <time>2020-07-12T15:06:08Z</time>
      </trkpt>
      <trkpt lat="43.55316" lon="2.79476">
        <ele>964</ele>
        <time>2020-07-12T15:06:39Z</time>
      </trkpt>
      <trkpt lat="43.55319" lon="2.79451">
        <ele>960.7</ele>
        <time>2020-07-12T15:06:56Z</time>
      </trkpt>
      <trkpt lat="43.55316" lon="2.79425">
        <ele>957.3</ele>
        <time>2020-07-12T15:07:17Z</time>
      </trkpt>
      <trkpt lat="43.55317" lon="2.794">
        <ele>957.4</ele>
        <time>2020-07-12T15:07:38Z</time>
      </trkpt>
      <trkpt lat="43.55306" lon="2.79374">
        <ele>959.2</ele>
        <time>2020-07-12T15:09:07Z</time>
      </trkpt>
      <trkpt lat="43.55311" lon="2.7935">
        <ele>960.9</ele>
        <time>2020-07-12T15:09:37Z</time>
      </trkpt>
      <trkpt lat="43.55304" lon="2.79327">
        <ele>962.7</ele>
        <time>2020-07-12T15:09:52Z</time>
      </trkpt>
      <trkpt lat="43.55294" lon="2.79306">
        <ele>965.1</ele>
        <time>2020-07-12T15:10:08Z</time>
      </trkpt>
      <trkpt lat="43.55282" lon="2.79286">
        <ele>967.6</ele>
        <time>2020-07-12T15:10:26Z</time>
      </trkpt>
      <trkpt lat="43.55265" lon="2.7928">
        <ele>968.7</ele>
        <time>2020-07-12T15:10:41Z</time>
      </trkpt>
      <trkpt lat="43.55247" lon="2.79279">
        <ele>969.2</ele>
        <time>2020-07-12T15:10:56Z</time>
      </trkpt>
      <trkpt lat="43.55228" lon="2.79271">
        <ele>970.4</ele>
        <time>2020-07-12T15:11:11Z</time>
      </trkpt>
      <trkpt lat="43.55213" lon="2.79258">
        <ele>972.6</ele>
        <time>2020-07-12T15:11:24Z</time>
      </trkpt>
      <trkpt lat="43.55195" lon="2.79249">
        <ele>974.4</ele>
        <time>2020-07-12T15:11:39Z</time>
      </trkpt>
      <trkpt lat="43.55187" lon="2.79226">
        <ele>975.3</ele>
        <time>2020-07-12T15:12:23Z</time>
      </trkpt>
      <trkpt lat="43.55169" lon="2.79226">
        <ele>975.5</ele>
        <time>2020-07-12T15:12:38Z</time>
      </trkpt>
      <trkpt lat="43.5515" lon="2.79225">
        <ele>969.9</ele>
        <time>2020-07-12T15:12:55Z</time>
      </trkpt>
      <trkpt lat="43.55167" lon="2.79219">
        <ele>975.7</ele>
        <time>2020-07-12T15:14:18Z</time>
      </trkpt>
      <trkpt lat="43.55194" lon="2.79197">
        <ele>976.2</ele>
        <time>2020-07-12T15:14:55Z</time>
      </trkpt>
      <trkpt lat="43.55201" lon="2.79174">
        <ele>977.1</ele>
        <time>2020-07-12T15:15:09Z</time>
      </trkpt>
      <trkpt lat="43.55209" lon="2.79152">
        <ele>978.3</ele>
        <time>2020-07-12T15:15:20Z</time>
      </trkpt>
      <trkpt lat="43.55218" lon="2.7913">
        <ele>979.5</ele>
        <time>2020-07-12T15:15:36Z</time>
      </trkpt>
      <trkpt lat="43.55224" lon="2.79106">
        <ele>980.8</ele>
        <time>2020-07-12T15:15:51Z</time>
      </trkpt>
      <trkpt lat="43.55231" lon="2.79082">
        <ele>982.1</ele>
        <time>2020-07-12T15:16:06Z</time>
      </trkpt>
      <trkpt lat="43.55235" lon="2.79057">
        <ele>983.9</ele>
        <time>2020-07-12T15:16:19Z</time>
      </trkpt>
      <trkpt lat="43.55241" lon="2.79033">
        <ele>985.3</ele>
        <time>2020-07-12T15:16:33Z</time>
      </trkpt>
      <trkpt lat="43.55246" lon="2.79009">
        <ele>986.7</ele>
        <time>2020-07-12T15:16:46Z</time>
      </trkpt>
      <trkpt lat="43.55257" lon="2.78987">
        <ele>988.1</ele>
        <time>2020-07-12T15:17:01Z</time>
      </trkpt>
      <trkpt lat="43.55271" lon="2.78971">
        <ele>988.6</ele>
        <time>2020-07-12T15:17:12Z</time>
      </trkpt>
      <trkpt lat="43.55286" lon="2.78957">
        <ele>988.4</ele>
        <time>2020-07-12T15:17:27Z</time>
      </trkpt>
      <trkpt lat="43.55305" lon="2.78954">
        <ele>986.2</ele>
        <time>2020-07-12T15:17:46Z</time>
      </trkpt>
      <trkpt lat="43.55323" lon="2.78958">
        <ele>983.4</ele>
        <time>2020-07-12T15:18:01Z</time>
      </trkpt>
      <trkpt lat="43.55341" lon="2.78954">
        <ele>981.8</ele>
        <time>2020-07-12T15:18:17Z</time>
      </trkpt>
      <trkpt lat="43.55357" lon="2.78965">
        <ele>979.5</ele>
        <time>2020-07-12T15:18:42Z</time>
      </trkpt>
      <trkpt lat="43.5537" lon="2.78984">
        <ele>977</ele>
        <time>2020-07-12T15:20:47Z</time>
      </trkpt>
      <trkpt lat="43.55386" lon="2.78997">
        <ele>975</ele>
        <time>2020-07-12T15:21:09Z</time>
      </trkpt>
      <trkpt lat="43.55409" lon="2.79018">
        <ele>972.8</ele>
        <time>2020-07-12T15:21:53Z</time>
      </trkpt>
      <trkpt lat="43.55425" lon="2.79031">
        <ele>971.5</ele>
        <time>2020-07-12T15:22:09Z</time>
      </trkpt>
      <trkpt lat="43.55443" lon="2.79039">
        <ele>970.2</ele>
        <time>2020-07-12T15:22:23Z</time>
      </trkpt>
      <trkpt lat="43.55455" lon="2.7902">
        <ele>970.8</ele>
        <time>2020-07-12T15:22:35Z</time>
      </trkpt>
      <trkpt lat="43.55462" lon="2.78996">
        <ele>972.2</ele>
        <time>2020-07-12T15:22:46Z</time>
      </trkpt>
      <trkpt lat="43.55474" lon="2.78977">
        <ele>973.5</ele>
        <time>2020-07-12T15:23:03Z</time>
      </trkpt>
      <trkpt lat="43.55492" lon="2.78982">
        <ele>972.8</ele>
        <time>2020-07-12T15:23:16Z</time>
      </trkpt>
      <trkpt lat="43.55508" lon="2.78995">
        <ele>971.5</ele>
        <time>2020-07-12T15:23:28Z</time>
      </trkpt>
      <trkpt lat="43.55525" lon="2.79009">
        <ele>970.3</ele>
        <time>2020-07-12T15:23:42Z</time>
      </trkpt>
      <trkpt lat="43.55544" lon="2.79006">
        <ele>970.6</ele>
        <time>2020-07-12T15:24:01Z</time>
      </trkpt>
      <trkpt lat="43.55556" lon="2.78988">
        <ele>972.3</ele>
        <time>2020-07-12T15:24:13Z</time>
      </trkpt>
      <trkpt lat="43.55568" lon="2.78968">
        <ele>974.7</ele>
        <time>2020-07-12T15:24:26Z</time>
      </trkpt>
      <trkpt lat="43.55586" lon="2.78961">
        <ele>975.8</ele>
        <time>2020-07-12T15:24:40Z</time>
      </trkpt>
      <trkpt lat="43.556" lon="2.78947">
        <ele>978.1</ele>
        <time>2020-07-12T15:24:52Z</time>
      </trkpt>
      <trkpt lat="43.55619" lon="2.78946">
        <ele>978.9</ele>
        <time>2020-07-12T15:25:10Z</time>
      </trkpt>
      <trkpt lat="43.55635" lon="2.78957">
        <ele>978.6</ele>
        <time>2020-07-12T15:25:26Z</time>
      </trkpt>
      <trkpt lat="43.5565" lon="2.78942">
        <ele>980.5</ele>
        <time>2020-07-12T15:25:40Z</time>
      </trkpt>
      <trkpt lat="43.55661" lon="2.78922">
        <ele>982.5</ele>
        <time>2020-07-12T15:25:58Z</time>
      </trkpt>
      <trkpt lat="43.55666" lon="2.78899">
        <ele>984.7</ele>
        <time>2020-07-12T15:26:21Z</time>
      </trkpt>
      <trkpt lat="43.55681" lon="2.78883">
        <ele>986.8</ele>
        <time>2020-07-12T15:26:40Z</time>
      </trkpt>
      <trkpt lat="43.55693" lon="2.78865">
        <ele>988.8</ele>
        <time>2020-07-12T15:26:58Z</time>
      </trkpt>
      <trkpt lat="43.55707" lon="2.78848">
        <ele>990.4</ele>
        <time>2020-07-12T15:27:19Z</time>
      </trkpt>
      <trkpt lat="43.55725" lon="2.78848">
        <ele>990.8</ele>
        <time>2020-07-12T15:27:30Z</time>
      </trkpt>
      <trkpt lat="43.55745" lon="2.78848">
        <ele>991.2</ele>
        <time>2020-07-12T15:27:46Z</time>
      </trkpt>
      <trkpt lat="43.5576" lon="2.78834">
        <ele>992.1</ele>
        <time>2020-07-12T15:28:32Z</time>
      </trkpt>
    </trkseg>
  </trk>
</gpx>